<?xml version="1.0" encoding="UTF-8" standalone="no" ?>
<gpx xmlns="http://www.topografix.com/GPX/1/1" xmlns:xsi="http://www.w3.org/2001/XMLSchema-instance" xsi:schemaLocation="http://www.topografix.com/GPX/1/1 http://www.topografix.com/GPX/1/1/gpx.xsd" version="1.1" creator="VisuGPX - https://www.visugpx.com">
  <metadata>
    <name>2017-03-27 - Pornichet, La Baule</name>
  </metadata>
  <trk>
    <name><![CDATA[MARS-27-17 10:16:42]]></name>
    <trkseg>
      <trkpt lat="47.24831" lon="-2.31382">
        <ele>10.23</ele>
        <time>2017-03-27T06:14:54Z</time>
      </trkpt>
      <trkpt lat="47.24837" lon="-2.31394">
        <ele>10.23</ele>
        <time>2017-03-27T06:15:05Z</time>
      </trkpt>
      <trkpt lat="47.2484" lon="-2.31406">
        <ele>10.71</ele>
        <time>2017-03-27T06:15:12Z</time>
      </trkpt>
      <trkpt lat="47.24846" lon="-2.31418">
        <ele>10.71</ele>
        <time>2017-03-27T06:15:19Z</time>
      </trkpt>
      <trkpt lat="47.2485" lon="-2.3143">
        <ele>10.71</ele>
        <time>2017-03-27T06:15:26Z</time>
      </trkpt>
      <trkpt lat="47.24855" lon="-2.31444">
        <ele>10.71</ele>
        <time>2017-03-27T06:15:34Z</time>
      </trkpt>
      <trkpt lat="47.24861" lon="-2.31456">
        <ele>9.27</ele>
        <time>2017-03-27T06:15:40Z</time>
      </trkpt>
      <trkpt lat="47.24861" lon="-2.31469">
        <ele>11.19</ele>
        <time>2017-03-27T06:15:48Z</time>
      </trkpt>
      <trkpt lat="47.24852" lon="-2.31476">
        <ele>12.63</ele>
        <time>2017-03-27T06:15:54Z</time>
      </trkpt>
      <trkpt lat="47.24842" lon="-2.31483">
        <ele>12.15</ele>
        <time>2017-03-27T06:16:02Z</time>
      </trkpt>
      <trkpt lat="47.24833" lon="-2.31491">
        <ele>9.75</ele>
        <time>2017-03-27T06:16:09Z</time>
      </trkpt>
      <trkpt lat="47.24824" lon="-2.31498">
        <ele>9.27</ele>
        <time>2017-03-27T06:16:15Z</time>
      </trkpt>
      <trkpt lat="47.24814" lon="-2.31511">
        <ele>8.79</ele>
        <time>2017-03-27T06:16:23Z</time>
      </trkpt>
      <trkpt lat="47.24804" lon="-2.31521">
        <ele>10.23</ele>
        <time>2017-03-27T06:16:31Z</time>
      </trkpt>
      <trkpt lat="47.24795" lon="-2.31529">
        <ele>11.67</ele>
        <time>2017-03-27T06:16:38Z</time>
      </trkpt>
      <trkpt lat="47.24786" lon="-2.31537">
        <ele>11.19</ele>
        <time>2017-03-27T06:16:45Z</time>
      </trkpt>
      <trkpt lat="47.24777" lon="-2.31545">
        <ele>10.71</ele>
        <time>2017-03-27T06:16:52Z</time>
      </trkpt>
      <trkpt lat="47.24768" lon="-2.31556">
        <ele>9.75</ele>
        <time>2017-03-27T06:16:59Z</time>
      </trkpt>
      <trkpt lat="47.2476" lon="-2.31566">
        <ele>7.83</ele>
        <time>2017-03-27T06:17:06Z</time>
      </trkpt>
      <trkpt lat="47.24751" lon="-2.31574">
        <ele>9.27</ele>
        <time>2017-03-27T06:17:13Z</time>
      </trkpt>
      <trkpt lat="47.24742" lon="-2.31582">
        <ele>10.23</ele>
        <time>2017-03-27T06:17:20Z</time>
      </trkpt>
      <trkpt lat="47.24733" lon="-2.3159">
        <ele>9.75</ele>
        <time>2017-03-27T06:17:27Z</time>
      </trkpt>
      <trkpt lat="47.24725" lon="-2.31598">
        <ele>10.71</ele>
        <time>2017-03-27T06:17:33Z</time>
      </trkpt>
      <trkpt lat="47.24717" lon="-2.31607">
        <ele>9.75</ele>
        <time>2017-03-27T06:17:40Z</time>
      </trkpt>
      <trkpt lat="47.24708" lon="-2.31616">
        <ele>7.83</ele>
        <time>2017-03-27T06:17:47Z</time>
      </trkpt>
      <trkpt lat="47.24699" lon="-2.31624">
        <ele>7.35</ele>
        <time>2017-03-27T06:17:53Z</time>
      </trkpt>
      <trkpt lat="47.24691" lon="-2.31631">
        <ele>7.35</ele>
        <time>2017-03-27T06:17:59Z</time>
      </trkpt>
      <trkpt lat="47.24684" lon="-2.31638">
        <ele>7.83</ele>
        <time>2017-03-27T06:18:05Z</time>
      </trkpt>
      <trkpt lat="47.24674" lon="-2.31647">
        <ele>6.87</ele>
        <time>2017-03-27T06:18:12Z</time>
      </trkpt>
      <trkpt lat="47.24666" lon="-2.31654">
        <ele>9.27</ele>
        <time>2017-03-27T06:18:18Z</time>
      </trkpt>
      <trkpt lat="47.24658" lon="-2.31663">
        <ele>7.35</ele>
        <time>2017-03-27T06:18:24Z</time>
      </trkpt>
      <trkpt lat="47.2465" lon="-2.31673">
        <ele>8.79</ele>
        <time>2017-03-27T06:18:31Z</time>
      </trkpt>
      <trkpt lat="47.24642" lon="-2.31681">
        <ele>6.87</ele>
        <time>2017-03-27T06:18:37Z</time>
      </trkpt>
      <trkpt lat="47.24634" lon="-2.31688">
        <ele>6.87</ele>
        <time>2017-03-27T06:18:43Z</time>
      </trkpt>
      <trkpt lat="47.24625" lon="-2.31696">
        <ele>5.91</ele>
        <time>2017-03-27T06:18:49Z</time>
      </trkpt>
      <trkpt lat="47.24618" lon="-2.31702">
        <ele>6.87</ele>
        <time>2017-03-27T06:18:55Z</time>
      </trkpt>
      <trkpt lat="47.2461" lon="-2.31711">
        <ele>7.35</ele>
        <time>2017-03-27T06:19:01Z</time>
      </trkpt>
      <trkpt lat="47.24602" lon="-2.31719">
        <ele>7.83</ele>
        <time>2017-03-27T06:19:07Z</time>
      </trkpt>
      <trkpt lat="47.24594" lon="-2.31727">
        <ele>8.79</ele>
        <time>2017-03-27T06:19:13Z</time>
      </trkpt>
      <trkpt lat="47.24586" lon="-2.31736">
        <ele>8.31</ele>
        <time>2017-03-27T06:19:20Z</time>
      </trkpt>
      <trkpt lat="47.24579" lon="-2.31744">
        <ele>8.79</ele>
        <time>2017-03-27T06:19:27Z</time>
      </trkpt>
      <trkpt lat="47.2457" lon="-2.31751">
        <ele>7.35</ele>
        <time>2017-03-27T06:19:33Z</time>
      </trkpt>
      <trkpt lat="47.24562" lon="-2.31758">
        <ele>4.94</ele>
        <time>2017-03-27T06:19:39Z</time>
      </trkpt>
      <trkpt lat="47.24553" lon="-2.31767">
        <ele>4.46</ele>
        <time>2017-03-27T06:19:46Z</time>
      </trkpt>
      <trkpt lat="47.24544" lon="-2.31776">
        <ele>4.46</ele>
        <time>2017-03-27T06:19:53Z</time>
      </trkpt>
      <trkpt lat="47.24535" lon="-2.31782">
        <ele>6.87</ele>
        <time>2017-03-27T06:19:59Z</time>
      </trkpt>
      <trkpt lat="47.24527" lon="-2.3179">
        <ele>7.83</ele>
        <time>2017-03-27T06:20:06Z</time>
      </trkpt>
      <trkpt lat="47.24519" lon="-2.31795">
        <ele>3.98</ele>
        <time>2017-03-27T06:20:12Z</time>
      </trkpt>
      <trkpt lat="47.24517" lon="-2.31809">
        <ele>5.91</ele>
        <time>2017-03-27T06:20:19Z</time>
      </trkpt>
      <trkpt lat="47.24511" lon="-2.3182">
        <ele>5.91</ele>
        <time>2017-03-27T06:20:26Z</time>
      </trkpt>
      <trkpt lat="47.24501" lon="-2.3183">
        <ele>4.46</ele>
        <time>2017-03-27T06:20:33Z</time>
      </trkpt>
      <trkpt lat="47.24492" lon="-2.31837">
        <ele>4.94</ele>
        <time>2017-03-27T06:20:39Z</time>
      </trkpt>
      <trkpt lat="47.24484" lon="-2.31844">
        <ele>2.54</ele>
        <time>2017-03-27T06:20:45Z</time>
      </trkpt>
      <trkpt lat="47.24477" lon="-2.31854">
        <ele>2.54</ele>
        <time>2017-03-27T06:20:51Z</time>
      </trkpt>
      <trkpt lat="47.24469" lon="-2.31864">
        <ele>2.06</ele>
        <time>2017-03-27T06:20:58Z</time>
      </trkpt>
      <trkpt lat="47.24462" lon="-2.31873">
        <ele>-0.34</ele>
        <time>2017-03-27T06:21:04Z</time>
      </trkpt>
      <trkpt lat="47.24454" lon="-2.31881">
        <ele>-2.27</ele>
        <time>2017-03-27T06:21:10Z</time>
      </trkpt>
      <trkpt lat="47.24447" lon="-2.3189">
        <ele>-4.19</ele>
        <time>2017-03-27T06:21:16Z</time>
      </trkpt>
      <trkpt lat="47.24445" lon="-2.31903">
        <ele>-2.75</ele>
        <time>2017-03-27T06:21:24Z</time>
      </trkpt>
      <trkpt lat="47.2445" lon="-2.31916">
        <ele>-2.27</ele>
        <time>2017-03-27T06:21:30Z</time>
      </trkpt>
      <trkpt lat="47.24455" lon="-2.3193">
        <ele>-2.27</ele>
        <time>2017-03-27T06:21:37Z</time>
      </trkpt>
      <trkpt lat="47.2446" lon="-2.31943">
        <ele>-2.75</ele>
        <time>2017-03-27T06:21:44Z</time>
      </trkpt>
      <trkpt lat="47.24464" lon="-2.31957">
        <ele>-2.75</ele>
        <time>2017-03-27T06:21:53Z</time>
      </trkpt>
      <trkpt lat="47.24469" lon="-2.3197">
        <ele>-2.75</ele>
        <time>2017-03-27T06:22:00Z</time>
      </trkpt>
      <trkpt lat="47.24477" lon="-2.31981">
        <ele>-2.75</ele>
        <time>2017-03-27T06:22:07Z</time>
      </trkpt>
      <trkpt lat="47.24484" lon="-2.3199">
        <ele>-2.27</ele>
        <time>2017-03-27T06:22:15Z</time>
      </trkpt>
      <trkpt lat="47.24492" lon="-2.31999">
        <ele>-2.75</ele>
        <time>2017-03-27T06:22:24Z</time>
      </trkpt>
      <trkpt lat="47.245" lon="-2.32008">
        <ele>-3.23</ele>
        <time>2017-03-27T06:22:31Z</time>
      </trkpt>
      <trkpt lat="47.24508" lon="-2.32016">
        <ele>-3.23</ele>
        <time>2017-03-27T06:22:38Z</time>
      </trkpt>
      <trkpt lat="47.24518" lon="-2.32022">
        <ele>11.67</ele>
        <time>2017-03-27T06:23:19Z</time>
      </trkpt>
      <trkpt lat="47.24528" lon="-2.32026">
        <ele>10.23</ele>
        <time>2017-03-27T06:23:26Z</time>
      </trkpt>
      <trkpt lat="47.24538" lon="-2.3203">
        <ele>10.71</ele>
        <time>2017-03-27T06:23:35Z</time>
      </trkpt>
      <trkpt lat="47.24546" lon="-2.32038">
        <ele>10.71</ele>
        <time>2017-03-27T06:23:42Z</time>
      </trkpt>
      <trkpt lat="47.24555" lon="-2.32044">
        <ele>10.23</ele>
        <time>2017-03-27T06:23:50Z</time>
      </trkpt>
      <trkpt lat="47.24565" lon="-2.32053">
        <ele>10.23</ele>
        <time>2017-03-27T06:23:59Z</time>
      </trkpt>
      <trkpt lat="47.24577" lon="-2.32059">
        <ele>8.79</ele>
        <time>2017-03-27T06:24:06Z</time>
      </trkpt>
      <trkpt lat="47.24586" lon="-2.32069">
        <ele>8.31</ele>
        <time>2017-03-27T06:24:13Z</time>
      </trkpt>
      <trkpt lat="47.24594" lon="-2.3208">
        <ele>8.31</ele>
        <time>2017-03-27T06:24:20Z</time>
      </trkpt>
      <trkpt lat="47.24601" lon="-2.32091">
        <ele>8.79</ele>
        <time>2017-03-27T06:24:26Z</time>
      </trkpt>
      <trkpt lat="47.24607" lon="-2.32102">
        <ele>9.27</ele>
        <time>2017-03-27T06:24:32Z</time>
      </trkpt>
      <trkpt lat="47.24616" lon="-2.32114">
        <ele>7.83</ele>
        <time>2017-03-27T06:24:40Z</time>
      </trkpt>
      <trkpt lat="47.24623" lon="-2.32126">
        <ele>5.42</ele>
        <time>2017-03-27T06:24:47Z</time>
      </trkpt>
      <trkpt lat="47.24631" lon="-2.32135">
        <ele>5.42</ele>
        <time>2017-03-27T06:24:53Z</time>
      </trkpt>
      <trkpt lat="47.24638" lon="-2.32146">
        <ele>5.42</ele>
        <time>2017-03-27T06:25:00Z</time>
      </trkpt>
      <trkpt lat="47.24647" lon="-2.32158">
        <ele>6.39</ele>
        <time>2017-03-27T06:25:08Z</time>
      </trkpt>
      <trkpt lat="47.24654" lon="-2.32169">
        <ele>5.91</ele>
        <time>2017-03-27T06:25:15Z</time>
      </trkpt>
      <trkpt lat="47.24663" lon="-2.32181">
        <ele>7.83</ele>
        <time>2017-03-27T06:25:22Z</time>
      </trkpt>
      <trkpt lat="47.2467" lon="-2.32192">
        <ele>5.91</ele>
        <time>2017-03-27T06:25:28Z</time>
      </trkpt>
      <trkpt lat="47.24677" lon="-2.32204">
        <ele>7.35</ele>
        <time>2017-03-27T06:25:35Z</time>
      </trkpt>
      <trkpt lat="47.24683" lon="-2.32216">
        <ele>7.83</ele>
        <time>2017-03-27T06:25:42Z</time>
      </trkpt>
      <trkpt lat="47.2469" lon="-2.32229">
        <ele>7.35</ele>
        <time>2017-03-27T06:25:49Z</time>
      </trkpt>
      <trkpt lat="47.24696" lon="-2.32243">
        <ele>11.19</ele>
        <time>2017-03-27T06:25:56Z</time>
      </trkpt>
      <trkpt lat="47.24703" lon="-2.32255">
        <ele>9.27</ele>
        <time>2017-03-27T06:26:02Z</time>
      </trkpt>
      <trkpt lat="47.2471" lon="-2.32268">
        <ele>10.23</ele>
        <time>2017-03-27T06:26:10Z</time>
      </trkpt>
      <trkpt lat="47.24717" lon="-2.32281">
        <ele>10.23</ele>
        <time>2017-03-27T06:26:17Z</time>
      </trkpt>
      <trkpt lat="47.24724" lon="-2.32293">
        <ele>6.39</ele>
        <time>2017-03-27T06:26:23Z</time>
      </trkpt>
      <trkpt lat="47.24729" lon="-2.32306">
        <ele>5.91</ele>
        <time>2017-03-27T06:26:31Z</time>
      </trkpt>
      <trkpt lat="47.24735" lon="-2.3232">
        <ele>4.94</ele>
        <time>2017-03-27T06:26:38Z</time>
      </trkpt>
      <trkpt lat="47.24742" lon="-2.32334">
        <ele>4.46</ele>
        <time>2017-03-27T06:26:46Z</time>
      </trkpt>
      <trkpt lat="47.24747" lon="-2.32347">
        <ele>8.31</ele>
        <time>2017-03-27T06:26:54Z</time>
      </trkpt>
      <trkpt lat="47.24753" lon="-2.3236">
        <ele>9.27</ele>
        <time>2017-03-27T06:27:01Z</time>
      </trkpt>
      <trkpt lat="47.24757" lon="-2.32372">
        <ele>7.83</ele>
        <time>2017-03-27T06:27:08Z</time>
      </trkpt>
      <trkpt lat="47.24764" lon="-2.32387">
        <ele>7.35</ele>
        <time>2017-03-27T06:27:16Z</time>
      </trkpt>
      <trkpt lat="47.24769" lon="-2.32401">
        <ele>5.91</ele>
        <time>2017-03-27T06:27:23Z</time>
      </trkpt>
      <trkpt lat="47.24775" lon="-2.32413">
        <ele>5.91</ele>
        <time>2017-03-27T06:27:30Z</time>
      </trkpt>
      <trkpt lat="47.24781" lon="-2.32426">
        <ele>8.79</ele>
        <time>2017-03-27T06:27:37Z</time>
      </trkpt>
      <trkpt lat="47.24785" lon="-2.32439">
        <ele>11.67</ele>
        <time>2017-03-27T06:27:44Z</time>
      </trkpt>
      <trkpt lat="47.24792" lon="-2.32452">
        <ele>8.79</ele>
        <time>2017-03-27T06:27:50Z</time>
      </trkpt>
      <trkpt lat="47.24797" lon="-2.32465">
        <ele>6.39</ele>
        <time>2017-03-27T06:27:56Z</time>
      </trkpt>
      <trkpt lat="47.24802" lon="-2.32479">
        <ele>8.31</ele>
        <time>2017-03-27T06:28:04Z</time>
      </trkpt>
      <trkpt lat="47.24807" lon="-2.32494">
        <ele>9.27</ele>
        <time>2017-03-27T06:28:11Z</time>
      </trkpt>
      <trkpt lat="47.24813" lon="-2.32508">
        <ele>6.87</ele>
        <time>2017-03-27T06:28:17Z</time>
      </trkpt>
      <trkpt lat="47.2482" lon="-2.3252">
        <ele>7.35</ele>
        <time>2017-03-27T06:28:23Z</time>
      </trkpt>
      <trkpt lat="47.24823" lon="-2.32534">
        <ele>6.87</ele>
        <time>2017-03-27T06:28:30Z</time>
      </trkpt>
      <trkpt lat="47.24829" lon="-2.32546">
        <ele>10.23</ele>
        <time>2017-03-27T06:28:36Z</time>
      </trkpt>
      <trkpt lat="47.24834" lon="-2.32557">
        <ele>10.23</ele>
        <time>2017-03-27T06:28:43Z</time>
      </trkpt>
      <trkpt lat="47.24839" lon="-2.3257">
        <ele>9.27</ele>
        <time>2017-03-27T06:28:50Z</time>
      </trkpt>
      <trkpt lat="47.24843" lon="-2.32583">
        <ele>5.42</ele>
        <time>2017-03-27T06:28:56Z</time>
      </trkpt>
      <trkpt lat="47.24847" lon="-2.32597">
        <ele>6.87</ele>
        <time>2017-03-27T06:29:03Z</time>
      </trkpt>
      <trkpt lat="47.24851" lon="-2.3261">
        <ele>6.87</ele>
        <time>2017-03-27T06:29:10Z</time>
      </trkpt>
      <trkpt lat="47.24858" lon="-2.32625">
        <ele>10.71</ele>
        <time>2017-03-27T06:29:17Z</time>
      </trkpt>
      <trkpt lat="47.24864" lon="-2.3264">
        <ele>11.19</ele>
        <time>2017-03-27T06:29:24Z</time>
      </trkpt>
      <trkpt lat="47.2487" lon="-2.32653">
        <ele>12.15</ele>
        <time>2017-03-27T06:29:32Z</time>
      </trkpt>
      <trkpt lat="47.24876" lon="-2.32666">
        <ele>7.83</ele>
        <time>2017-03-27T06:29:39Z</time>
      </trkpt>
      <trkpt lat="47.24883" lon="-2.32679">
        <ele>7.83</ele>
        <time>2017-03-27T06:29:46Z</time>
      </trkpt>
      <trkpt lat="47.2489" lon="-2.32692">
        <ele>11.19</ele>
        <time>2017-03-27T06:29:52Z</time>
      </trkpt>
      <trkpt lat="47.24894" lon="-2.32704">
        <ele>10.23</ele>
        <time>2017-03-27T06:29:58Z</time>
      </trkpt>
      <trkpt lat="47.24897" lon="-2.32717">
        <ele>10.71</ele>
        <time>2017-03-27T06:30:05Z</time>
      </trkpt>
      <trkpt lat="47.249" lon="-2.32731">
        <ele>10.71</ele>
        <time>2017-03-27T06:30:12Z</time>
      </trkpt>
      <trkpt lat="47.24906" lon="-2.32743">
        <ele>9.27</ele>
        <time>2017-03-27T06:30:18Z</time>
      </trkpt>
      <trkpt lat="47.2491" lon="-2.32755">
        <ele>7.83</ele>
        <time>2017-03-27T06:30:24Z</time>
      </trkpt>
      <trkpt lat="47.24914" lon="-2.32768">
        <ele>7.83</ele>
        <time>2017-03-27T06:30:31Z</time>
      </trkpt>
      <trkpt lat="47.24918" lon="-2.32781">
        <ele>9.27</ele>
        <time>2017-03-27T06:30:37Z</time>
      </trkpt>
      <trkpt lat="47.24924" lon="-2.32795">
        <ele>8.31</ele>
        <time>2017-03-27T06:30:45Z</time>
      </trkpt>
      <trkpt lat="47.2493" lon="-2.3281">
        <ele>6.39</ele>
        <time>2017-03-27T06:30:53Z</time>
      </trkpt>
      <trkpt lat="47.24935" lon="-2.32823">
        <ele>6.87</ele>
        <time>2017-03-27T06:31:00Z</time>
      </trkpt>
      <trkpt lat="47.2494" lon="-2.32836">
        <ele>6.87</ele>
        <time>2017-03-27T06:31:07Z</time>
      </trkpt>
      <trkpt lat="47.24945" lon="-2.3285">
        <ele>6.39</ele>
        <time>2017-03-27T06:31:14Z</time>
      </trkpt>
      <trkpt lat="47.24949" lon="-2.32863">
        <ele>9.27</ele>
        <time>2017-03-27T06:31:20Z</time>
      </trkpt>
      <trkpt lat="47.24952" lon="-2.32876">
        <ele>8.31</ele>
        <time>2017-03-27T06:31:27Z</time>
      </trkpt>
      <trkpt lat="47.24957" lon="-2.32888">
        <ele>5.91</ele>
        <time>2017-03-27T06:31:33Z</time>
      </trkpt>
      <trkpt lat="47.24962" lon="-2.32901">
        <ele>6.87</ele>
        <time>2017-03-27T06:31:40Z</time>
      </trkpt>
      <trkpt lat="47.24966" lon="-2.32915">
        <ele>6.87</ele>
        <time>2017-03-27T06:31:47Z</time>
      </trkpt>
      <trkpt lat="47.2497" lon="-2.32928">
        <ele>6.87</ele>
        <time>2017-03-27T06:31:53Z</time>
      </trkpt>
      <trkpt lat="47.24975" lon="-2.32942">
        <ele>7.35</ele>
        <time>2017-03-27T06:32:00Z</time>
      </trkpt>
      <trkpt lat="47.24978" lon="-2.32956">
        <ele>5.91</ele>
        <time>2017-03-27T06:32:07Z</time>
      </trkpt>
      <trkpt lat="47.24979" lon="-2.32972">
        <ele>4.46</ele>
        <time>2017-03-27T06:32:14Z</time>
      </trkpt>
      <trkpt lat="47.24984" lon="-2.32986">
        <ele>3.5</ele>
        <time>2017-03-27T06:32:20Z</time>
      </trkpt>
      <trkpt lat="47.24988" lon="-2.32998">
        <ele>6.87</ele>
        <time>2017-03-27T06:32:26Z</time>
      </trkpt>
      <trkpt lat="47.24992" lon="-2.33011">
        <ele>6.39</ele>
        <time>2017-03-27T06:32:33Z</time>
      </trkpt>
      <trkpt lat="47.24998" lon="-2.33024">
        <ele>4.94</ele>
        <time>2017-03-27T06:32:40Z</time>
      </trkpt>
      <trkpt lat="47.25003" lon="-2.33036">
        <ele>6.39</ele>
        <time>2017-03-27T06:32:47Z</time>
      </trkpt>
      <trkpt lat="47.2501" lon="-2.33049">
        <ele>4.46</ele>
        <time>2017-03-27T06:32:55Z</time>
      </trkpt>
      <trkpt lat="47.25016" lon="-2.33061">
        <ele>5.91</ele>
        <time>2017-03-27T06:33:01Z</time>
      </trkpt>
      <trkpt lat="47.2502" lon="-2.33074">
        <ele>6.87</ele>
        <time>2017-03-27T06:33:07Z</time>
      </trkpt>
      <trkpt lat="47.25026" lon="-2.33086">
        <ele>6.87</ele>
        <time>2017-03-27T06:33:13Z</time>
      </trkpt>
      <trkpt lat="47.25032" lon="-2.33096">
        <ele>3.02</ele>
        <time>2017-03-27T06:33:19Z</time>
      </trkpt>
      <trkpt lat="47.25036" lon="-2.33105">
        <ele>5.91</ele>
        <time>2017-03-27T06:33:38Z</time>
      </trkpt>
      <trkpt lat="47.25042" lon="-2.33119">
        <ele>3.5</ele>
        <time>2017-03-27T06:33:45Z</time>
      </trkpt>
      <trkpt lat="47.25047" lon="-2.33133">
        <ele>3.98</ele>
        <time>2017-03-27T06:33:52Z</time>
      </trkpt>
      <trkpt lat="47.25053" lon="-2.33144">
        <ele>4.94</ele>
        <time>2017-03-27T06:33:59Z</time>
      </trkpt>
      <trkpt lat="47.2506" lon="-2.33151">
        <ele>5.42</ele>
        <time>2017-03-27T06:34:08Z</time>
      </trkpt>
      <trkpt lat="47.25061" lon="-2.33164">
        <ele>4.94</ele>
        <time>2017-03-27T06:34:16Z</time>
      </trkpt>
      <trkpt lat="47.25066" lon="-2.33176">
        <ele>4.94</ele>
        <time>2017-03-27T06:34:22Z</time>
      </trkpt>
      <trkpt lat="47.25071" lon="-2.33188">
        <ele>4.94</ele>
        <time>2017-03-27T06:34:28Z</time>
      </trkpt>
      <trkpt lat="47.25076" lon="-2.33198">
        <ele>3.5</ele>
        <time>2017-03-27T06:34:34Z</time>
      </trkpt>
      <trkpt lat="47.25082" lon="-2.3321">
        <ele>4.94</ele>
        <time>2017-03-27T06:34:41Z</time>
      </trkpt>
      <trkpt lat="47.25088" lon="-2.33222">
        <ele>3.5</ele>
        <time>2017-03-27T06:34:48Z</time>
      </trkpt>
      <trkpt lat="47.25096" lon="-2.33235">
        <ele>3.98</ele>
        <time>2017-03-27T06:34:55Z</time>
      </trkpt>
      <trkpt lat="47.25103" lon="-2.33246">
        <ele>3.02</ele>
        <time>2017-03-27T06:35:01Z</time>
      </trkpt>
      <trkpt lat="47.2511" lon="-2.33258">
        <ele>3.02</ele>
        <time>2017-03-27T06:35:08Z</time>
      </trkpt>
      <trkpt lat="47.25116" lon="-2.33268">
        <ele>4.94</ele>
        <time>2017-03-27T06:35:14Z</time>
      </trkpt>
      <trkpt lat="47.25122" lon="-2.33279">
        <ele>6.39</ele>
        <time>2017-03-27T06:35:20Z</time>
      </trkpt>
      <trkpt lat="47.25127" lon="-2.33291">
        <ele>6.87</ele>
        <time>2017-03-27T06:35:26Z</time>
      </trkpt>
      <trkpt lat="47.25132" lon="-2.33303">
        <ele>6.87</ele>
        <time>2017-03-27T06:35:33Z</time>
      </trkpt>
      <trkpt lat="47.2514" lon="-2.33315">
        <ele>6.87</ele>
        <time>2017-03-27T06:35:40Z</time>
      </trkpt>
      <trkpt lat="47.25147" lon="-2.33327">
        <ele>5.91</ele>
        <time>2017-03-27T06:35:46Z</time>
      </trkpt>
      <trkpt lat="47.25153" lon="-2.33338">
        <ele>6.39</ele>
        <time>2017-03-27T06:35:52Z</time>
      </trkpt>
      <trkpt lat="47.25159" lon="-2.33349">
        <ele>5.91</ele>
        <time>2017-03-27T06:35:58Z</time>
      </trkpt>
      <trkpt lat="47.25166" lon="-2.33361">
        <ele>6.39</ele>
        <time>2017-03-27T06:36:05Z</time>
      </trkpt>
      <trkpt lat="47.25173" lon="-2.33372">
        <ele>4.94</ele>
        <time>2017-03-27T06:36:11Z</time>
      </trkpt>
      <trkpt lat="47.25177" lon="-2.33379">
        <ele>4.46</ele>
        <time>2017-03-27T06:36:18Z</time>
      </trkpt>
      <trkpt lat="47.2518" lon="-2.33389">
        <ele>6.39</ele>
        <time>2017-03-27T06:36:26Z</time>
      </trkpt>
      <trkpt lat="47.25183" lon="-2.33402">
        <ele>6.87</ele>
        <time>2017-03-27T06:36:33Z</time>
      </trkpt>
      <trkpt lat="47.25189" lon="-2.33414">
        <ele>7.35</ele>
        <time>2017-03-27T06:36:40Z</time>
      </trkpt>
      <trkpt lat="47.25196" lon="-2.33426">
        <ele>6.87</ele>
        <time>2017-03-27T06:36:46Z</time>
      </trkpt>
      <trkpt lat="47.25202" lon="-2.33437">
        <ele>5.91</ele>
        <time>2017-03-27T06:36:52Z</time>
      </trkpt>
      <trkpt lat="47.25208" lon="-2.33449">
        <ele>3.98</ele>
        <time>2017-03-27T06:36:59Z</time>
      </trkpt>
      <trkpt lat="47.25214" lon="-2.33462">
        <ele>4.94</ele>
        <time>2017-03-27T06:37:06Z</time>
      </trkpt>
      <trkpt lat="47.2522" lon="-2.33472">
        <ele>3.02</ele>
        <time>2017-03-27T06:37:12Z</time>
      </trkpt>
      <trkpt lat="47.25225" lon="-2.33484">
        <ele>2.54</ele>
        <time>2017-03-27T06:37:19Z</time>
      </trkpt>
      <trkpt lat="47.25232" lon="-2.33496">
        <ele>2.54</ele>
        <time>2017-03-27T06:37:26Z</time>
      </trkpt>
      <trkpt lat="47.25237" lon="-2.33508">
        <ele>3.98</ele>
        <time>2017-03-27T06:37:32Z</time>
      </trkpt>
      <trkpt lat="47.25243" lon="-2.33521">
        <ele>3.02</ele>
        <time>2017-03-27T06:37:39Z</time>
      </trkpt>
      <trkpt lat="47.25248" lon="-2.33533">
        <ele>3.02</ele>
        <time>2017-03-27T06:37:46Z</time>
      </trkpt>
      <trkpt lat="47.25254" lon="-2.33545">
        <ele>3.02</ele>
        <time>2017-03-27T06:37:53Z</time>
      </trkpt>
      <trkpt lat="47.2526" lon="-2.33558">
        <ele>3.98</ele>
        <time>2017-03-27T06:38:00Z</time>
      </trkpt>
      <trkpt lat="47.25265" lon="-2.33571">
        <ele>4.94</ele>
        <time>2017-03-27T06:38:07Z</time>
      </trkpt>
      <trkpt lat="47.25274" lon="-2.33578">
        <ele>5.42</ele>
        <time>2017-03-27T06:38:15Z</time>
      </trkpt>
      <trkpt lat="47.25282" lon="-2.33578">
        <ele>5.91</ele>
        <time>2017-03-27T06:38:22Z</time>
      </trkpt>
      <trkpt lat="47.25282" lon="-2.33594">
        <ele>4.94</ele>
        <time>2017-03-27T06:38:30Z</time>
      </trkpt>
      <trkpt lat="47.2529" lon="-2.33604">
        <ele>6.87</ele>
        <time>2017-03-27T06:38:38Z</time>
      </trkpt>
      <trkpt lat="47.25301" lon="-2.33614">
        <ele>7.35</ele>
        <time>2017-03-27T06:38:45Z</time>
      </trkpt>
      <trkpt lat="47.25308" lon="-2.33624">
        <ele>5.91</ele>
        <time>2017-03-27T06:38:51Z</time>
      </trkpt>
      <trkpt lat="47.25317" lon="-2.33633">
        <ele>4.46</ele>
        <time>2017-03-27T06:38:58Z</time>
      </trkpt>
      <trkpt lat="47.25326" lon="-2.33642">
        <ele>2.54</ele>
        <time>2017-03-27T06:39:05Z</time>
      </trkpt>
      <trkpt lat="47.25333" lon="-2.33653">
        <ele>3.5</ele>
        <time>2017-03-27T06:39:12Z</time>
      </trkpt>
      <trkpt lat="47.25341" lon="-2.33664">
        <ele>4.94</ele>
        <time>2017-03-27T06:39:20Z</time>
      </trkpt>
      <trkpt lat="47.25349" lon="-2.33676">
        <ele>5.91</ele>
        <time>2017-03-27T06:39:27Z</time>
      </trkpt>
      <trkpt lat="47.25357" lon="-2.33685">
        <ele>6.39</ele>
        <time>2017-03-27T06:39:34Z</time>
      </trkpt>
      <trkpt lat="47.25367" lon="-2.3369">
        <ele>4.46</ele>
        <time>2017-03-27T06:39:41Z</time>
      </trkpt>
      <trkpt lat="47.25375" lon="-2.33698">
        <ele>4.94</ele>
        <time>2017-03-27T06:39:48Z</time>
      </trkpt>
      <trkpt lat="47.25382" lon="-2.33708">
        <ele>4.46</ele>
        <time>2017-03-27T06:39:56Z</time>
      </trkpt>
      <trkpt lat="47.25384" lon="-2.33712">
        <ele>3.5</ele>
        <time>2017-03-27T06:40:18Z</time>
      </trkpt>
      <trkpt lat="47.25384" lon="-2.33726">
        <ele>-0.34</ele>
        <time>2017-03-27T06:40:25Z</time>
      </trkpt>
      <trkpt lat="47.25386" lon="-2.3374">
        <ele>3.98</ele>
        <time>2017-03-27T06:40:33Z</time>
      </trkpt>
      <trkpt lat="47.25393" lon="-2.33751">
        <ele>1.1</ele>
        <time>2017-03-27T06:40:39Z</time>
      </trkpt>
      <trkpt lat="47.25398" lon="-2.33765">
        <ele>2.54</ele>
        <time>2017-03-27T06:40:46Z</time>
      </trkpt>
      <trkpt lat="47.25405" lon="-2.33775">
        <ele>2.54</ele>
        <time>2017-03-27T06:40:52Z</time>
      </trkpt>
      <trkpt lat="47.2541" lon="-2.33785">
        <ele>1.1</ele>
        <time>2017-03-27T06:40:58Z</time>
      </trkpt>
      <trkpt lat="47.25417" lon="-2.33797">
        <ele>1.58</ele>
        <time>2017-03-27T06:41:05Z</time>
      </trkpt>
      <trkpt lat="47.25422" lon="-2.33809">
        <ele>2.54</ele>
        <time>2017-03-27T06:41:11Z</time>
      </trkpt>
      <trkpt lat="47.25426" lon="-2.33821">
        <ele>-0.34</ele>
        <time>2017-03-27T06:41:17Z</time>
      </trkpt>
      <trkpt lat="47.25433" lon="-2.33832">
        <ele>-0.34</ele>
        <time>2017-03-27T06:41:23Z</time>
      </trkpt>
      <trkpt lat="47.25439" lon="-2.33843">
        <ele>0.14</ele>
        <time>2017-03-27T06:41:30Z</time>
      </trkpt>
      <trkpt lat="47.25446" lon="-2.33852">
        <ele>2.54</ele>
        <time>2017-03-27T06:41:36Z</time>
      </trkpt>
      <trkpt lat="47.25453" lon="-2.33864">
        <ele>2.54</ele>
        <time>2017-03-27T06:41:43Z</time>
      </trkpt>
      <trkpt lat="47.2546" lon="-2.33874">
        <ele>2.06</ele>
        <time>2017-03-27T06:41:50Z</time>
      </trkpt>
      <trkpt lat="47.25468" lon="-2.33884">
        <ele>3.5</ele>
        <time>2017-03-27T06:41:57Z</time>
      </trkpt>
      <trkpt lat="47.25474" lon="-2.33891">
        <ele>2.54</ele>
        <time>2017-03-27T06:42:06Z</time>
      </trkpt>
      <trkpt lat="47.25481" lon="-2.339">
        <ele>3.98</ele>
        <time>2017-03-27T06:42:14Z</time>
      </trkpt>
      <trkpt lat="47.25489" lon="-2.33908">
        <ele>2.06</ele>
        <time>2017-03-27T06:42:21Z</time>
      </trkpt>
      <trkpt lat="47.25496" lon="-2.33917">
        <ele>4.46</ele>
        <time>2017-03-27T06:42:28Z</time>
      </trkpt>
      <trkpt lat="47.25503" lon="-2.33926">
        <ele>3.02</ele>
        <time>2017-03-27T06:42:39Z</time>
      </trkpt>
      <trkpt lat="47.25512" lon="-2.33925">
        <ele>7.35</ele>
        <time>2017-03-27T06:42:46Z</time>
      </trkpt>
      <trkpt lat="47.25519" lon="-2.33936">
        <ele>4.46</ele>
        <time>2017-03-27T06:42:53Z</time>
      </trkpt>
      <trkpt lat="47.25527" lon="-2.33946">
        <ele>5.91</ele>
        <time>2017-03-27T06:43:00Z</time>
      </trkpt>
      <trkpt lat="47.25536" lon="-2.33954">
        <ele>6.39</ele>
        <time>2017-03-27T06:43:07Z</time>
      </trkpt>
      <trkpt lat="47.25544" lon="-2.33963">
        <ele>6.39</ele>
        <time>2017-03-27T06:43:15Z</time>
      </trkpt>
      <trkpt lat="47.25552" lon="-2.33969">
        <ele>6.87</ele>
        <time>2017-03-27T06:43:23Z</time>
      </trkpt>
      <trkpt lat="47.25563" lon="-2.33978">
        <ele>5.91</ele>
        <time>2017-03-27T06:43:31Z</time>
      </trkpt>
      <trkpt lat="47.25572" lon="-2.33989">
        <ele>4.94</ele>
        <time>2017-03-27T06:43:40Z</time>
      </trkpt>
      <trkpt lat="47.25583" lon="-2.33998">
        <ele>4.94</ele>
        <time>2017-03-27T06:43:49Z</time>
      </trkpt>
      <trkpt lat="47.25591" lon="-2.34009">
        <ele>7.35</ele>
        <time>2017-03-27T06:43:56Z</time>
      </trkpt>
      <trkpt lat="47.25601" lon="-2.34019">
        <ele>4.46</ele>
        <time>2017-03-27T06:44:04Z</time>
      </trkpt>
      <trkpt lat="47.25608" lon="-2.3403">
        <ele>7.35</ele>
        <time>2017-03-27T06:44:11Z</time>
      </trkpt>
      <trkpt lat="47.25611" lon="-2.34045">
        <ele>4.94</ele>
        <time>2017-03-27T06:44:19Z</time>
      </trkpt>
      <trkpt lat="47.25615" lon="-2.34061">
        <ele>5.42</ele>
        <time>2017-03-27T06:44:27Z</time>
      </trkpt>
      <trkpt lat="47.25621" lon="-2.34076">
        <ele>7.35</ele>
        <time>2017-03-27T06:44:34Z</time>
      </trkpt>
      <trkpt lat="47.25625" lon="-2.34089">
        <ele>7.83</ele>
        <time>2017-03-27T06:44:42Z</time>
      </trkpt>
      <trkpt lat="47.2563" lon="-2.34102">
        <ele>5.91</ele>
        <time>2017-03-27T06:44:50Z</time>
      </trkpt>
      <trkpt lat="47.25635" lon="-2.34116">
        <ele>5.42</ele>
        <time>2017-03-27T06:44:57Z</time>
      </trkpt>
      <trkpt lat="47.25641" lon="-2.3413">
        <ele>3.98</ele>
        <time>2017-03-27T06:45:04Z</time>
      </trkpt>
      <trkpt lat="47.25647" lon="-2.34143">
        <ele>4.94</ele>
        <time>2017-03-27T06:45:11Z</time>
      </trkpt>
      <trkpt lat="47.25654" lon="-2.34155">
        <ele>5.91</ele>
        <time>2017-03-27T06:45:19Z</time>
      </trkpt>
      <trkpt lat="47.25661" lon="-2.34167">
        <ele>3.98</ele>
        <time>2017-03-27T06:45:29Z</time>
      </trkpt>
      <trkpt lat="47.25667" lon="-2.34179">
        <ele>3.02</ele>
        <time>2017-03-27T06:45:36Z</time>
      </trkpt>
      <trkpt lat="47.25676" lon="-2.34189">
        <ele>5.42</ele>
        <time>2017-03-27T06:45:44Z</time>
      </trkpt>
      <trkpt lat="47.25686" lon="-2.3419">
        <ele>5.42</ele>
        <time>2017-03-27T06:45:51Z</time>
      </trkpt>
      <trkpt lat="47.25694" lon="-2.34188">
        <ele>5.42</ele>
        <time>2017-03-27T06:45:57Z</time>
      </trkpt>
      <trkpt lat="47.25703" lon="-2.34186">
        <ele>5.42</ele>
        <time>2017-03-27T06:46:04Z</time>
      </trkpt>
      <trkpt lat="47.25713" lon="-2.34182">
        <ele>5.42</ele>
        <time>2017-03-27T06:46:11Z</time>
      </trkpt>
      <trkpt lat="47.25723" lon="-2.3418">
        <ele>3.02</ele>
        <time>2017-03-27T06:46:18Z</time>
      </trkpt>
      <trkpt lat="47.25733" lon="-2.34178">
        <ele>3.02</ele>
        <time>2017-03-27T06:46:25Z</time>
      </trkpt>
      <trkpt lat="47.25744" lon="-2.34177">
        <ele>4.46</ele>
        <time>2017-03-27T06:46:32Z</time>
      </trkpt>
      <trkpt lat="47.25753" lon="-2.34174">
        <ele>2.06</ele>
        <time>2017-03-27T06:46:38Z</time>
      </trkpt>
      <trkpt lat="47.25762" lon="-2.34171">
        <ele>1.58</ele>
        <time>2017-03-27T06:46:44Z</time>
      </trkpt>
      <trkpt lat="47.25773" lon="-2.34169">
        <ele>1.58</ele>
        <time>2017-03-27T06:46:50Z</time>
      </trkpt>
      <trkpt lat="47.25784" lon="-2.34166">
        <ele>7.35</ele>
        <time>2017-03-27T06:46:55Z</time>
      </trkpt>
      <trkpt lat="47.25796" lon="-2.34165">
        <ele>3.5</ele>
        <time>2017-03-27T06:47:02Z</time>
      </trkpt>
      <trkpt lat="47.25807" lon="-2.34167">
        <ele>4.46</ele>
        <time>2017-03-27T06:47:09Z</time>
      </trkpt>
      <trkpt lat="47.25819" lon="-2.34169">
        <ele>3.5</ele>
        <time>2017-03-27T06:47:17Z</time>
      </trkpt>
      <trkpt lat="47.25831" lon="-2.34169">
        <ele>2.54</ele>
        <time>2017-03-27T06:47:24Z</time>
      </trkpt>
      <trkpt lat="47.25837" lon="-2.34158">
        <ele>4.94</ele>
        <time>2017-03-27T06:47:31Z</time>
      </trkpt>
      <trkpt lat="47.25845" lon="-2.34155">
        <ele>2.54</ele>
        <time>2017-03-27T06:47:39Z</time>
      </trkpt>
      <trkpt lat="47.25854" lon="-2.34162">
        <ele>2.06</ele>
        <time>2017-03-27T06:47:45Z</time>
      </trkpt>
      <trkpt lat="47.25865" lon="-2.34169">
        <ele>1.58</ele>
        <time>2017-03-27T06:47:51Z</time>
      </trkpt>
      <trkpt lat="47.25875" lon="-2.34166">
        <ele>1.1</ele>
        <time>2017-03-27T06:47:58Z</time>
      </trkpt>
      <trkpt lat="47.25883" lon="-2.34156">
        <ele>3.5</ele>
        <time>2017-03-27T06:48:05Z</time>
      </trkpt>
      <trkpt lat="47.25888" lon="-2.34144">
        <ele>1.1</ele>
        <time>2017-03-27T06:48:12Z</time>
      </trkpt>
      <trkpt lat="47.25897" lon="-2.34152">
        <ele>1.1</ele>
        <time>2017-03-27T06:48:19Z</time>
      </trkpt>
      <trkpt lat="47.25907" lon="-2.34156">
        <ele>1.58</ele>
        <time>2017-03-27T06:48:27Z</time>
      </trkpt>
      <trkpt lat="47.25914" lon="-2.34147">
        <ele>1.58</ele>
        <time>2017-03-27T06:48:34Z</time>
      </trkpt>
      <trkpt lat="47.25919" lon="-2.34138">
        <ele>3.98</ele>
        <time>2017-03-27T06:48:40Z</time>
      </trkpt>
      <trkpt lat="47.25927" lon="-2.34129">
        <ele>2.06</ele>
        <time>2017-03-27T06:48:46Z</time>
      </trkpt>
      <trkpt lat="47.25935" lon="-2.34123">
        <ele>3.98</ele>
        <time>2017-03-27T06:48:53Z</time>
      </trkpt>
      <trkpt lat="47.25944" lon="-2.34118">
        <ele>2.54</ele>
        <time>2017-03-27T06:48:59Z</time>
      </trkpt>
      <trkpt lat="47.25954" lon="-2.34116">
        <ele>2.06</ele>
        <time>2017-03-27T06:49:07Z</time>
      </trkpt>
      <trkpt lat="47.25962" lon="-2.3411">
        <ele>3.02</ele>
        <time>2017-03-27T06:49:14Z</time>
      </trkpt>
      <trkpt lat="47.2597" lon="-2.34103">
        <ele>3.98</ele>
        <time>2017-03-27T06:49:21Z</time>
      </trkpt>
      <trkpt lat="47.25982" lon="-2.34107">
        <ele>2.54</ele>
        <time>2017-03-27T06:49:28Z</time>
      </trkpt>
      <trkpt lat="47.25994" lon="-2.34112">
        <ele>2.54</ele>
        <time>2017-03-27T06:49:35Z</time>
      </trkpt>
      <trkpt lat="47.26003" lon="-2.34114">
        <ele>3.98</ele>
        <time>2017-03-27T06:49:42Z</time>
      </trkpt>
      <trkpt lat="47.26013" lon="-2.34118">
        <ele>5.42</ele>
        <time>2017-03-27T06:49:48Z</time>
      </trkpt>
      <trkpt lat="47.26022" lon="-2.34122">
        <ele>3.98</ele>
        <time>2017-03-27T06:49:54Z</time>
      </trkpt>
      <trkpt lat="47.26031" lon="-2.34127">
        <ele>4.46</ele>
        <time>2017-03-27T06:50:00Z</time>
      </trkpt>
      <trkpt lat="47.2604" lon="-2.34134">
        <ele>5.91</ele>
        <time>2017-03-27T06:50:07Z</time>
      </trkpt>
      <trkpt lat="47.26049" lon="-2.34141">
        <ele>4.46</ele>
        <time>2017-03-27T06:50:14Z</time>
      </trkpt>
      <trkpt lat="47.26058" lon="-2.34144">
        <ele>4.46</ele>
        <time>2017-03-27T06:50:21Z</time>
      </trkpt>
      <trkpt lat="47.26068" lon="-2.34147">
        <ele>3.5</ele>
        <time>2017-03-27T06:50:28Z</time>
      </trkpt>
      <trkpt lat="47.26078" lon="-2.34151">
        <ele>5.42</ele>
        <time>2017-03-27T06:50:35Z</time>
      </trkpt>
      <trkpt lat="47.26088" lon="-2.34156">
        <ele>4.94</ele>
        <time>2017-03-27T06:50:42Z</time>
      </trkpt>
      <trkpt lat="47.26097" lon="-2.34163">
        <ele>1.58</ele>
        <time>2017-03-27T06:50:49Z</time>
      </trkpt>
      <trkpt lat="47.26107" lon="-2.34168">
        <ele>3.5</ele>
        <time>2017-03-27T06:50:56Z</time>
      </trkpt>
      <trkpt lat="47.26116" lon="-2.34172">
        <ele>6.39</ele>
        <time>2017-03-27T06:51:03Z</time>
      </trkpt>
      <trkpt lat="47.26125" lon="-2.34178">
        <ele>3.5</ele>
        <time>2017-03-27T06:51:10Z</time>
      </trkpt>
      <trkpt lat="47.2613" lon="-2.34193">
        <ele>4.46</ele>
        <time>2017-03-27T06:51:17Z</time>
      </trkpt>
      <trkpt lat="47.26141" lon="-2.34191">
        <ele>4.46</ele>
        <time>2017-03-27T06:51:26Z</time>
      </trkpt>
      <trkpt lat="47.26151" lon="-2.34191">
        <ele>4.46</ele>
        <time>2017-03-27T06:51:34Z</time>
      </trkpt>
      <trkpt lat="47.26157" lon="-2.34178">
        <ele>2.54</ele>
        <time>2017-03-27T06:51:41Z</time>
      </trkpt>
      <trkpt lat="47.26156" lon="-2.34165">
        <ele>3.5</ele>
        <time>2017-03-27T06:51:48Z</time>
      </trkpt>
      <trkpt lat="47.26152" lon="-2.34152">
        <ele>5.42</ele>
        <time>2017-03-27T06:51:55Z</time>
      </trkpt>
      <trkpt lat="47.2615" lon="-2.34138">
        <ele>4.46</ele>
        <time>2017-03-27T06:52:02Z</time>
      </trkpt>
      <trkpt lat="47.26142" lon="-2.34128">
        <ele>5.91</ele>
        <time>2017-03-27T06:52:08Z</time>
      </trkpt>
      <trkpt lat="47.26135" lon="-2.34116">
        <ele>4.94</ele>
        <time>2017-03-27T06:52:17Z</time>
      </trkpt>
      <trkpt lat="47.26126" lon="-2.34106">
        <ele>5.91</ele>
        <time>2017-03-27T06:52:26Z</time>
      </trkpt>
      <trkpt lat="47.26119" lon="-2.34092">
        <ele>3.98</ele>
        <time>2017-03-27T06:52:31Z</time>
      </trkpt>
      <trkpt lat="47.26112" lon="-2.34078">
        <ele>2.06</ele>
        <time>2017-03-27T06:52:37Z</time>
      </trkpt>
      <trkpt lat="47.26107" lon="-2.34064">
        <ele>2.54</ele>
        <time>2017-03-27T06:52:44Z</time>
      </trkpt>
      <trkpt lat="47.261" lon="-2.34053">
        <ele>3.02</ele>
        <time>2017-03-27T06:52:51Z</time>
      </trkpt>
      <trkpt lat="47.26095" lon="-2.34034">
        <ele>1.58</ele>
        <time>2017-03-27T06:53:02Z</time>
      </trkpt>
      <trkpt lat="47.26092" lon="-2.3402">
        <ele>1.1</ele>
        <time>2017-03-27T06:53:10Z</time>
      </trkpt>
      <trkpt lat="47.26084" lon="-2.34006">
        <ele>0.62</ele>
        <time>2017-03-27T06:53:18Z</time>
      </trkpt>
      <trkpt lat="47.26076" lon="-2.33994">
        <ele>1.1</ele>
        <time>2017-03-27T06:53:28Z</time>
      </trkpt>
      <trkpt lat="47.26066" lon="-2.33981">
        <ele>3.02</ele>
        <time>2017-03-27T06:53:37Z</time>
      </trkpt>
      <trkpt lat="47.26063" lon="-2.33963">
        <ele>1.1</ele>
        <time>2017-03-27T06:53:44Z</time>
      </trkpt>
      <trkpt lat="47.26061" lon="-2.33949">
        <ele>0.14</ele>
        <time>2017-03-27T06:53:52Z</time>
      </trkpt>
      <trkpt lat="47.26048" lon="-2.33947">
        <ele>-0.34</ele>
        <time>2017-03-27T06:54:02Z</time>
      </trkpt>
      <trkpt lat="47.26036" lon="-2.33945">
        <ele>0.14</ele>
        <time>2017-03-27T06:54:11Z</time>
      </trkpt>
      <trkpt lat="47.26022" lon="-2.33944">
        <ele>1.1</ele>
        <time>2017-03-27T06:54:21Z</time>
      </trkpt>
      <trkpt lat="47.26009" lon="-2.33942">
        <ele>1.1</ele>
        <time>2017-03-27T06:54:34Z</time>
      </trkpt>
      <trkpt lat="47.25998" lon="-2.3393">
        <ele>3.98</ele>
        <time>2017-03-27T06:54:44Z</time>
      </trkpt>
      <trkpt lat="47.25984" lon="-2.33931">
        <ele>3.02</ele>
        <time>2017-03-27T06:54:54Z</time>
      </trkpt>
      <trkpt lat="47.25972" lon="-2.33927">
        <ele>3.02</ele>
        <time>2017-03-27T06:55:13Z</time>
      </trkpt>
      <trkpt lat="47.25966" lon="-2.33933">
        <ele>2.54</ele>
        <time>2017-03-27T06:56:12Z</time>
      </trkpt>
      <trkpt lat="47.25956" lon="-2.33943">
        <ele>1.58</ele>
        <time>2017-03-27T06:56:51Z</time>
      </trkpt>
      <trkpt lat="47.25945" lon="-2.3394">
        <ele>2.06</ele>
        <time>2017-03-27T06:56:59Z</time>
      </trkpt>
      <trkpt lat="47.25934" lon="-2.33937">
        <ele>2.06</ele>
        <time>2017-03-27T06:57:05Z</time>
      </trkpt>
      <trkpt lat="47.25927" lon="-2.33949">
        <ele>1.1</ele>
        <time>2017-03-27T06:57:13Z</time>
      </trkpt>
      <trkpt lat="47.25921" lon="-2.33961">
        <ele>1.1</ele>
        <time>2017-03-27T06:57:19Z</time>
      </trkpt>
      <trkpt lat="47.25915" lon="-2.33974">
        <ele>3.5</ele>
        <time>2017-03-27T06:57:26Z</time>
      </trkpt>
      <trkpt lat="47.25911" lon="-2.3399">
        <ele>3.02</ele>
        <time>2017-03-27T06:57:33Z</time>
      </trkpt>
      <trkpt lat="47.2591" lon="-2.34006">
        <ele>3.5</ele>
        <time>2017-03-27T06:57:39Z</time>
      </trkpt>
      <trkpt lat="47.25907" lon="-2.3402">
        <ele>3.5</ele>
        <time>2017-03-27T06:57:45Z</time>
      </trkpt>
      <trkpt lat="47.259" lon="-2.34032">
        <ele>3.02</ele>
        <time>2017-03-27T06:57:52Z</time>
      </trkpt>
      <trkpt lat="47.25895" lon="-2.34046">
        <ele>2.06</ele>
        <time>2017-03-27T06:57:59Z</time>
      </trkpt>
      <trkpt lat="47.25893" lon="-2.3406">
        <ele>1.58</ele>
        <time>2017-03-27T06:58:06Z</time>
      </trkpt>
      <trkpt lat="47.25895" lon="-2.34074">
        <ele>3.02</ele>
        <time>2017-03-27T06:58:12Z</time>
      </trkpt>
      <trkpt lat="47.25902" lon="-2.34083">
        <ele>3.5</ele>
        <time>2017-03-27T06:58:18Z</time>
      </trkpt>
      <trkpt lat="47.25909" lon="-2.3409">
        <ele>3.98</ele>
        <time>2017-03-27T06:58:24Z</time>
      </trkpt>
      <trkpt lat="47.25917" lon="-2.34098">
        <ele>3.5</ele>
        <time>2017-03-27T06:58:30Z</time>
      </trkpt>
      <trkpt lat="47.25923" lon="-2.34108">
        <ele>3.5</ele>
        <time>2017-03-27T06:58:36Z</time>
      </trkpt>
      <trkpt lat="47.25932" lon="-2.34118">
        <ele>1.58</ele>
        <time>2017-03-27T06:58:43Z</time>
      </trkpt>
      <trkpt lat="47.25941" lon="-2.34121">
        <ele>1.58</ele>
        <time>2017-03-27T06:58:50Z</time>
      </trkpt>
      <trkpt lat="47.2595" lon="-2.34119">
        <ele>3.02</ele>
        <time>2017-03-27T06:58:56Z</time>
      </trkpt>
      <trkpt lat="47.2596" lon="-2.34114">
        <ele>4.46</ele>
        <time>2017-03-27T06:59:02Z</time>
      </trkpt>
      <trkpt lat="47.25969" lon="-2.34108">
        <ele>3.98</ele>
        <time>2017-03-27T06:59:08Z</time>
      </trkpt>
      <trkpt lat="47.25978" lon="-2.34106">
        <ele>4.94</ele>
        <time>2017-03-27T06:59:14Z</time>
      </trkpt>
      <trkpt lat="47.25988" lon="-2.3411">
        <ele>4.46</ele>
        <time>2017-03-27T06:59:20Z</time>
      </trkpt>
      <trkpt lat="47.25998" lon="-2.34113">
        <ele>5.42</ele>
        <time>2017-03-27T06:59:26Z</time>
      </trkpt>
      <trkpt lat="47.26007" lon="-2.34119">
        <ele>5.42</ele>
        <time>2017-03-27T06:59:32Z</time>
      </trkpt>
      <trkpt lat="47.26016" lon="-2.34121">
        <ele>4.94</ele>
        <time>2017-03-27T06:59:38Z</time>
      </trkpt>
      <trkpt lat="47.26024" lon="-2.34125">
        <ele>4.46</ele>
        <time>2017-03-27T06:59:44Z</time>
      </trkpt>
      <trkpt lat="47.26033" lon="-2.3413">
        <ele>4.46</ele>
        <time>2017-03-27T06:59:51Z</time>
      </trkpt>
      <trkpt lat="47.26044" lon="-2.34137">
        <ele>4.46</ele>
        <time>2017-03-27T06:59:58Z</time>
      </trkpt>
      <trkpt lat="47.26052" lon="-2.34141">
        <ele>6.39</ele>
        <time>2017-03-27T07:00:05Z</time>
      </trkpt>
      <trkpt lat="47.26061" lon="-2.34147">
        <ele>3.98</ele>
        <time>2017-03-27T07:00:11Z</time>
      </trkpt>
      <trkpt lat="47.26071" lon="-2.34149">
        <ele>4.94</ele>
        <time>2017-03-27T07:00:17Z</time>
      </trkpt>
      <trkpt lat="47.2608" lon="-2.34154">
        <ele>5.42</ele>
        <time>2017-03-27T07:00:23Z</time>
      </trkpt>
      <trkpt lat="47.2609" lon="-2.34158">
        <ele>4.94</ele>
        <time>2017-03-27T07:00:29Z</time>
      </trkpt>
      <trkpt lat="47.26099" lon="-2.34165">
        <ele>5.91</ele>
        <time>2017-03-27T07:00:35Z</time>
      </trkpt>
      <trkpt lat="47.26109" lon="-2.34169">
        <ele>3.98</ele>
        <time>2017-03-27T07:00:42Z</time>
      </trkpt>
      <trkpt lat="47.26118" lon="-2.34174">
        <ele>3.98</ele>
        <time>2017-03-27T07:00:48Z</time>
      </trkpt>
      <trkpt lat="47.26128" lon="-2.34179">
        <ele>4.94</ele>
        <time>2017-03-27T07:00:55Z</time>
      </trkpt>
      <trkpt lat="47.26135" lon="-2.3419">
        <ele>3.02</ele>
        <time>2017-03-27T07:01:03Z</time>
      </trkpt>
      <trkpt lat="47.26143" lon="-2.34191">
        <ele>1.58</ele>
        <time>2017-03-27T07:01:10Z</time>
      </trkpt>
      <trkpt lat="47.26153" lon="-2.34198">
        <ele>5.42</ele>
        <time>2017-03-27T07:01:16Z</time>
      </trkpt>
      <trkpt lat="47.26161" lon="-2.34207">
        <ele>4.94</ele>
        <time>2017-03-27T07:01:22Z</time>
      </trkpt>
      <trkpt lat="47.26169" lon="-2.34214">
        <ele>4.94</ele>
        <time>2017-03-27T07:01:28Z</time>
      </trkpt>
      <trkpt lat="47.26177" lon="-2.34223">
        <ele>4.46</ele>
        <time>2017-03-27T07:01:35Z</time>
      </trkpt>
      <trkpt lat="47.26185" lon="-2.34232">
        <ele>2.06</ele>
        <time>2017-03-27T07:01:42Z</time>
      </trkpt>
      <trkpt lat="47.26193" lon="-2.34239">
        <ele>3.5</ele>
        <time>2017-03-27T07:01:48Z</time>
      </trkpt>
      <trkpt lat="47.26201" lon="-2.34249">
        <ele>5.42</ele>
        <time>2017-03-27T07:01:55Z</time>
      </trkpt>
      <trkpt lat="47.26201" lon="-2.34264">
        <ele>5.91</ele>
        <time>2017-03-27T07:02:04Z</time>
      </trkpt>
      <trkpt lat="47.26205" lon="-2.34277">
        <ele>3.98</ele>
        <time>2017-03-27T07:02:10Z</time>
      </trkpt>
      <trkpt lat="47.2621" lon="-2.34287">
        <ele>3.02</ele>
        <time>2017-03-27T07:02:18Z</time>
      </trkpt>
      <trkpt lat="47.26218" lon="-2.34292">
        <ele>5.42</ele>
        <time>2017-03-27T07:02:25Z</time>
      </trkpt>
      <trkpt lat="47.26226" lon="-2.34301">
        <ele>4.46</ele>
        <time>2017-03-27T07:02:33Z</time>
      </trkpt>
      <trkpt lat="47.26235" lon="-2.34309">
        <ele>4.46</ele>
        <time>2017-03-27T07:02:42Z</time>
      </trkpt>
      <trkpt lat="47.26244" lon="-2.34314">
        <ele>4.94</ele>
        <time>2017-03-27T07:02:50Z</time>
      </trkpt>
      <trkpt lat="47.26253" lon="-2.34307">
        <ele>2.54</ele>
        <time>2017-03-27T07:03:00Z</time>
      </trkpt>
      <trkpt lat="47.26261" lon="-2.34316">
        <ele>5.42</ele>
        <time>2017-03-27T07:03:06Z</time>
      </trkpt>
      <trkpt lat="47.2627" lon="-2.34323">
        <ele>3.98</ele>
        <time>2017-03-27T07:03:12Z</time>
      </trkpt>
      <trkpt lat="47.26278" lon="-2.34332">
        <ele>5.42</ele>
        <time>2017-03-27T07:03:19Z</time>
      </trkpt>
      <trkpt lat="47.26287" lon="-2.3434">
        <ele>4.46</ele>
        <time>2017-03-27T07:03:26Z</time>
      </trkpt>
      <trkpt lat="47.26295" lon="-2.34349">
        <ele>2.54</ele>
        <time>2017-03-27T07:03:32Z</time>
      </trkpt>
      <trkpt lat="47.26303" lon="-2.34357">
        <ele>3.5</ele>
        <time>2017-03-27T07:03:39Z</time>
      </trkpt>
      <trkpt lat="47.26311" lon="-2.34366">
        <ele>2.54</ele>
        <time>2017-03-27T07:03:46Z</time>
      </trkpt>
      <trkpt lat="47.26318" lon="-2.34376">
        <ele>4.46</ele>
        <time>2017-03-27T07:03:53Z</time>
      </trkpt>
      <trkpt lat="47.26326" lon="-2.34385">
        <ele>6.39</ele>
        <time>2017-03-27T07:04:00Z</time>
      </trkpt>
      <trkpt lat="47.26336" lon="-2.34386">
        <ele>6.87</ele>
        <time>2017-03-27T07:04:07Z</time>
      </trkpt>
      <trkpt lat="47.26344" lon="-2.34394">
        <ele>3.98</ele>
        <time>2017-03-27T07:04:15Z</time>
      </trkpt>
      <trkpt lat="47.26355" lon="-2.34399">
        <ele>1.58</ele>
        <time>2017-03-27T07:04:23Z</time>
      </trkpt>
      <trkpt lat="47.26364" lon="-2.34408">
        <ele>4.94</ele>
        <time>2017-03-27T07:04:30Z</time>
      </trkpt>
      <trkpt lat="47.26373" lon="-2.34415">
        <ele>5.42</ele>
        <time>2017-03-27T07:04:37Z</time>
      </trkpt>
      <trkpt lat="47.26381" lon="-2.34421">
        <ele>4.46</ele>
        <time>2017-03-27T07:04:45Z</time>
      </trkpt>
      <trkpt lat="47.2639" lon="-2.34429">
        <ele>5.42</ele>
        <time>2017-03-27T07:04:52Z</time>
      </trkpt>
      <trkpt lat="47.264" lon="-2.34437">
        <ele>3.5</ele>
        <time>2017-03-27T07:05:00Z</time>
      </trkpt>
      <trkpt lat="47.26408" lon="-2.34445">
        <ele>3.5</ele>
        <time>2017-03-27T07:05:07Z</time>
      </trkpt>
      <trkpt lat="47.26419" lon="-2.34453">
        <ele>3.02</ele>
        <time>2017-03-27T07:05:14Z</time>
      </trkpt>
      <trkpt lat="47.26429" lon="-2.34462">
        <ele>3.98</ele>
        <time>2017-03-27T07:05:21Z</time>
      </trkpt>
      <trkpt lat="47.26437" lon="-2.34469">
        <ele>3.98</ele>
        <time>2017-03-27T07:05:29Z</time>
      </trkpt>
      <trkpt lat="47.26447" lon="-2.34474">
        <ele>5.42</ele>
        <time>2017-03-27T07:05:36Z</time>
      </trkpt>
      <trkpt lat="47.26457" lon="-2.3448">
        <ele>5.91</ele>
        <time>2017-03-27T07:05:43Z</time>
      </trkpt>
      <trkpt lat="47.26467" lon="-2.34488">
        <ele>4.94</ele>
        <time>2017-03-27T07:05:51Z</time>
      </trkpt>
      <trkpt lat="47.26477" lon="-2.34493">
        <ele>5.91</ele>
        <time>2017-03-27T07:05:58Z</time>
      </trkpt>
      <trkpt lat="47.26486" lon="-2.345">
        <ele>4.46</ele>
        <time>2017-03-27T07:06:20Z</time>
      </trkpt>
      <trkpt lat="47.26496" lon="-2.34506">
        <ele>4.46</ele>
        <time>2017-03-27T07:06:30Z</time>
      </trkpt>
      <trkpt lat="47.26506" lon="-2.3451">
        <ele>5.91</ele>
        <time>2017-03-27T07:06:56Z</time>
      </trkpt>
      <trkpt lat="47.26514" lon="-2.34517">
        <ele>2.06</ele>
        <time>2017-03-27T07:07:03Z</time>
      </trkpt>
      <trkpt lat="47.26523" lon="-2.34526">
        <ele>4.94</ele>
        <time>2017-03-27T07:07:15Z</time>
      </trkpt>
      <trkpt lat="47.26534" lon="-2.34534">
        <ele>5.42</ele>
        <time>2017-03-27T07:07:23Z</time>
      </trkpt>
      <trkpt lat="47.26543" lon="-2.34544">
        <ele>6.39</ele>
        <time>2017-03-27T07:07:30Z</time>
      </trkpt>
      <trkpt lat="47.26552" lon="-2.34552">
        <ele>5.91</ele>
        <time>2017-03-27T07:07:37Z</time>
      </trkpt>
      <trkpt lat="47.26562" lon="-2.34563">
        <ele>3.02</ele>
        <time>2017-03-27T07:07:46Z</time>
      </trkpt>
      <trkpt lat="47.26569" lon="-2.34575">
        <ele>1.58</ele>
        <time>2017-03-27T07:07:54Z</time>
      </trkpt>
      <trkpt lat="47.26578" lon="-2.34588">
        <ele>3.98</ele>
        <time>2017-03-27T07:08:02Z</time>
      </trkpt>
      <trkpt lat="47.26588" lon="-2.34596">
        <ele>4.94</ele>
        <time>2017-03-27T07:08:09Z</time>
      </trkpt>
      <trkpt lat="47.26598" lon="-2.34606">
        <ele>5.42</ele>
        <time>2017-03-27T07:08:17Z</time>
      </trkpt>
      <trkpt lat="47.26607" lon="-2.34617">
        <ele>2.54</ele>
        <time>2017-03-27T07:08:24Z</time>
      </trkpt>
      <trkpt lat="47.26614" lon="-2.34627">
        <ele>3.98</ele>
        <time>2017-03-27T07:08:30Z</time>
      </trkpt>
      <trkpt lat="47.26621" lon="-2.34638">
        <ele>3.02</ele>
        <time>2017-03-27T07:08:37Z</time>
      </trkpt>
      <trkpt lat="47.26629" lon="-2.34646">
        <ele>3.02</ele>
        <time>2017-03-27T07:08:44Z</time>
      </trkpt>
      <trkpt lat="47.26637" lon="-2.34656">
        <ele>3.98</ele>
        <time>2017-03-27T07:08:51Z</time>
      </trkpt>
      <trkpt lat="47.26645" lon="-2.34666">
        <ele>4.46</ele>
        <time>2017-03-27T07:08:58Z</time>
      </trkpt>
      <trkpt lat="47.26652" lon="-2.34675">
        <ele>2.54</ele>
        <time>2017-03-27T07:09:06Z</time>
      </trkpt>
      <trkpt lat="47.26662" lon="-2.34688">
        <ele>5.42</ele>
        <time>2017-03-27T07:10:08Z</time>
      </trkpt>
      <trkpt lat="47.26671" lon="-2.34697">
        <ele>4.46</ele>
        <time>2017-03-27T07:10:14Z</time>
      </trkpt>
      <trkpt lat="47.2668" lon="-2.34706">
        <ele>2.54</ele>
        <time>2017-03-27T07:10:20Z</time>
      </trkpt>
      <trkpt lat="47.26688" lon="-2.34716">
        <ele>2.06</ele>
        <time>2017-03-27T07:10:26Z</time>
      </trkpt>
      <trkpt lat="47.26696" lon="-2.34724">
        <ele>3.02</ele>
        <time>2017-03-27T07:10:32Z</time>
      </trkpt>
      <trkpt lat="47.26702" lon="-2.34734">
        <ele>2.54</ele>
        <time>2017-03-27T07:10:39Z</time>
      </trkpt>
      <trkpt lat="47.2671" lon="-2.34745">
        <ele>3.98</ele>
        <time>2017-03-27T07:10:46Z</time>
      </trkpt>
      <trkpt lat="47.26718" lon="-2.34755">
        <ele>1.1</ele>
        <time>2017-03-27T07:10:53Z</time>
      </trkpt>
      <trkpt lat="47.26727" lon="-2.34765">
        <ele>1.1</ele>
        <time>2017-03-27T07:10:59Z</time>
      </trkpt>
      <trkpt lat="47.26734" lon="-2.34774">
        <ele>1.58</ele>
        <time>2017-03-27T07:11:05Z</time>
      </trkpt>
      <trkpt lat="47.26742" lon="-2.34783">
        <ele>1.1</ele>
        <time>2017-03-27T07:11:12Z</time>
      </trkpt>
      <trkpt lat="47.26749" lon="-2.34793">
        <ele>3.98</ele>
        <time>2017-03-27T07:11:19Z</time>
      </trkpt>
      <trkpt lat="47.26757" lon="-2.34804">
        <ele>4.46</ele>
        <time>2017-03-27T07:11:26Z</time>
      </trkpt>
      <trkpt lat="47.26764" lon="-2.34815">
        <ele>5.42</ele>
        <time>2017-03-27T07:11:32Z</time>
      </trkpt>
      <trkpt lat="47.26771" lon="-2.34823">
        <ele>3.98</ele>
        <time>2017-03-27T07:11:38Z</time>
      </trkpt>
      <trkpt lat="47.26779" lon="-2.34832">
        <ele>3.5</ele>
        <time>2017-03-27T07:11:44Z</time>
      </trkpt>
      <trkpt lat="47.26786" lon="-2.34841">
        <ele>3.5</ele>
        <time>2017-03-27T07:11:51Z</time>
      </trkpt>
      <trkpt lat="47.26792" lon="-2.34852">
        <ele>2.54</ele>
        <time>2017-03-27T07:11:58Z</time>
      </trkpt>
      <trkpt lat="47.268" lon="-2.34863">
        <ele>4.94</ele>
        <time>2017-03-27T07:12:05Z</time>
      </trkpt>
      <trkpt lat="47.26807" lon="-2.34874">
        <ele>2.54</ele>
        <time>2017-03-27T07:12:11Z</time>
      </trkpt>
      <trkpt lat="47.26813" lon="-2.34886">
        <ele>3.02</ele>
        <time>2017-03-27T07:12:18Z</time>
      </trkpt>
      <trkpt lat="47.26821" lon="-2.34895">
        <ele>3.98</ele>
        <time>2017-03-27T07:12:25Z</time>
      </trkpt>
      <trkpt lat="47.26829" lon="-2.34905">
        <ele>3.98</ele>
        <time>2017-03-27T07:12:32Z</time>
      </trkpt>
      <trkpt lat="47.26837" lon="-2.34916">
        <ele>3.98</ele>
        <time>2017-03-27T07:12:38Z</time>
      </trkpt>
      <trkpt lat="47.26844" lon="-2.34925">
        <ele>2.06</ele>
        <time>2017-03-27T07:12:44Z</time>
      </trkpt>
      <trkpt lat="47.26852" lon="-2.34936">
        <ele>3.02</ele>
        <time>2017-03-27T07:12:51Z</time>
      </trkpt>
      <trkpt lat="47.26857" lon="-2.34948">
        <ele>1.58</ele>
        <time>2017-03-27T07:12:58Z</time>
      </trkpt>
      <trkpt lat="47.26864" lon="-2.34958">
        <ele>2.54</ele>
        <time>2017-03-27T07:13:04Z</time>
      </trkpt>
      <trkpt lat="47.26872" lon="-2.34968">
        <ele>3.98</ele>
        <time>2017-03-27T07:13:11Z</time>
      </trkpt>
      <trkpt lat="47.26879" lon="-2.34979">
        <ele>5.42</ele>
        <time>2017-03-27T07:13:18Z</time>
      </trkpt>
      <trkpt lat="47.26888" lon="-2.3499">
        <ele>4.94</ele>
        <time>2017-03-27T07:13:25Z</time>
      </trkpt>
      <trkpt lat="47.26895" lon="-2.35001">
        <ele>2.54</ele>
        <time>2017-03-27T07:13:32Z</time>
      </trkpt>
      <trkpt lat="47.26904" lon="-2.3501">
        <ele>2.06</ele>
        <time>2017-03-27T07:13:39Z</time>
      </trkpt>
      <trkpt lat="47.26909" lon="-2.35022">
        <ele>2.06</ele>
        <time>2017-03-27T07:13:46Z</time>
      </trkpt>
      <trkpt lat="47.26915" lon="-2.35033">
        <ele>1.58</ele>
        <time>2017-03-27T07:13:52Z</time>
      </trkpt>
      <trkpt lat="47.26922" lon="-2.35043">
        <ele>5.42</ele>
        <time>2017-03-27T07:13:58Z</time>
      </trkpt>
      <trkpt lat="47.26929" lon="-2.35053">
        <ele>4.46</ele>
        <time>2017-03-27T07:14:05Z</time>
      </trkpt>
      <trkpt lat="47.26936" lon="-2.35066">
        <ele>3.02</ele>
        <time>2017-03-27T07:14:12Z</time>
      </trkpt>
      <trkpt lat="47.26942" lon="-2.35078">
        <ele>3.98</ele>
        <time>2017-03-27T07:14:19Z</time>
      </trkpt>
      <trkpt lat="47.26953" lon="-2.35089">
        <ele>3.98</ele>
        <time>2017-03-27T07:14:26Z</time>
      </trkpt>
      <trkpt lat="47.26957" lon="-2.351">
        <ele>4.46</ele>
        <time>2017-03-27T07:14:32Z</time>
      </trkpt>
      <trkpt lat="47.26964" lon="-2.3511">
        <ele>3.5</ele>
        <time>2017-03-27T07:14:38Z</time>
      </trkpt>
      <trkpt lat="47.26971" lon="-2.35121">
        <ele>3.5</ele>
        <time>2017-03-27T07:14:44Z</time>
      </trkpt>
      <trkpt lat="47.26978" lon="-2.35129">
        <ele>3.5</ele>
        <time>2017-03-27T07:14:51Z</time>
      </trkpt>
      <trkpt lat="47.26984" lon="-2.35139">
        <ele>4.46</ele>
        <time>2017-03-27T07:15:01Z</time>
      </trkpt>
      <trkpt lat="47.26993" lon="-2.35149">
        <ele>3.98</ele>
        <time>2017-03-27T07:15:22Z</time>
      </trkpt>
      <trkpt lat="47.27" lon="-2.35161">
        <ele>3.02</ele>
        <time>2017-03-27T07:15:30Z</time>
      </trkpt>
      <trkpt lat="47.27007" lon="-2.35172">
        <ele>4.46</ele>
        <time>2017-03-27T07:15:36Z</time>
      </trkpt>
      <trkpt lat="47.27014" lon="-2.35182">
        <ele>3.5</ele>
        <time>2017-03-27T07:15:43Z</time>
      </trkpt>
      <trkpt lat="47.27021" lon="-2.35195">
        <ele>3.02</ele>
        <time>2017-03-27T07:15:51Z</time>
      </trkpt>
      <trkpt lat="47.27029" lon="-2.35207">
        <ele>2.06</ele>
        <time>2017-03-27T07:15:58Z</time>
      </trkpt>
      <trkpt lat="47.27036" lon="-2.35218">
        <ele>2.54</ele>
        <time>2017-03-27T07:16:04Z</time>
      </trkpt>
      <trkpt lat="47.27042" lon="-2.35228">
        <ele>6.39</ele>
        <time>2017-03-27T07:16:10Z</time>
      </trkpt>
      <trkpt lat="47.2705" lon="-2.35239">
        <ele>6.39</ele>
        <time>2017-03-27T07:16:17Z</time>
      </trkpt>
      <trkpt lat="47.27057" lon="-2.35248">
        <ele>3.02</ele>
        <time>2017-03-27T07:16:23Z</time>
      </trkpt>
      <trkpt lat="47.27066" lon="-2.35258">
        <ele>3.98</ele>
        <time>2017-03-27T07:16:31Z</time>
      </trkpt>
      <trkpt lat="47.27074" lon="-2.3527">
        <ele>3.5</ele>
        <time>2017-03-27T07:16:38Z</time>
      </trkpt>
      <trkpt lat="47.27079" lon="-2.35281">
        <ele>3.02</ele>
        <time>2017-03-27T07:16:44Z</time>
      </trkpt>
      <trkpt lat="47.27087" lon="-2.35292">
        <ele>3.02</ele>
        <time>2017-03-27T07:16:51Z</time>
      </trkpt>
      <trkpt lat="47.27093" lon="-2.35303">
        <ele>5.91</ele>
        <time>2017-03-27T07:16:57Z</time>
      </trkpt>
      <trkpt lat="47.27099" lon="-2.35313">
        <ele>6.39</ele>
        <time>2017-03-27T07:17:03Z</time>
      </trkpt>
      <trkpt lat="47.27106" lon="-2.35324">
        <ele>6.87</ele>
        <time>2017-03-27T07:17:10Z</time>
      </trkpt>
      <trkpt lat="47.27112" lon="-2.35336">
        <ele>6.87</ele>
        <time>2017-03-27T07:17:17Z</time>
      </trkpt>
      <trkpt lat="47.27118" lon="-2.35346">
        <ele>4.94</ele>
        <time>2017-03-27T07:17:23Z</time>
      </trkpt>
      <trkpt lat="47.27124" lon="-2.35357">
        <ele>4.46</ele>
        <time>2017-03-27T07:17:30Z</time>
      </trkpt>
      <trkpt lat="47.27132" lon="-2.35369">
        <ele>2.06</ele>
        <time>2017-03-27T07:17:37Z</time>
      </trkpt>
      <trkpt lat="47.27139" lon="-2.3538">
        <ele>2.06</ele>
        <time>2017-03-27T07:17:44Z</time>
      </trkpt>
      <trkpt lat="47.27146" lon="-2.35392">
        <ele>1.58</ele>
        <time>2017-03-27T07:17:51Z</time>
      </trkpt>
      <trkpt lat="47.27153" lon="-2.35406">
        <ele>2.54</ele>
        <time>2017-03-27T07:17:58Z</time>
      </trkpt>
      <trkpt lat="47.27159" lon="-2.35417">
        <ele>4.46</ele>
        <time>2017-03-27T07:18:05Z</time>
      </trkpt>
      <trkpt lat="47.27167" lon="-2.35428">
        <ele>3.02</ele>
        <time>2017-03-27T07:18:11Z</time>
      </trkpt>
      <trkpt lat="47.27173" lon="-2.3544">
        <ele>3.5</ele>
        <time>2017-03-27T07:18:18Z</time>
      </trkpt>
      <trkpt lat="47.2718" lon="-2.35452">
        <ele>3.02</ele>
        <time>2017-03-27T07:18:25Z</time>
      </trkpt>
      <trkpt lat="47.27186" lon="-2.35465">
        <ele>2.54</ele>
        <time>2017-03-27T07:18:32Z</time>
      </trkpt>
      <trkpt lat="47.27193" lon="-2.35476">
        <ele>2.54</ele>
        <time>2017-03-27T07:18:39Z</time>
      </trkpt>
      <trkpt lat="47.27201" lon="-2.35487">
        <ele>2.54</ele>
        <time>2017-03-27T07:18:46Z</time>
      </trkpt>
      <trkpt lat="47.27207" lon="-2.35499">
        <ele>3.02</ele>
        <time>2017-03-27T07:18:53Z</time>
      </trkpt>
      <trkpt lat="47.27213" lon="-2.35512">
        <ele>4.46</ele>
        <time>2017-03-27T07:18:59Z</time>
      </trkpt>
      <trkpt lat="47.27213" lon="-2.35525">
        <ele>5.91</ele>
        <time>2017-03-27T07:19:05Z</time>
      </trkpt>
      <trkpt lat="47.27217" lon="-2.35536">
        <ele>3.02</ele>
        <time>2017-03-27T07:19:12Z</time>
      </trkpt>
      <trkpt lat="47.27221" lon="-2.3555">
        <ele>3.02</ele>
        <time>2017-03-27T07:19:19Z</time>
      </trkpt>
      <trkpt lat="47.27229" lon="-2.35562">
        <ele>2.54</ele>
        <time>2017-03-27T07:19:26Z</time>
      </trkpt>
      <trkpt lat="47.27236" lon="-2.35574">
        <ele>2.54</ele>
        <time>2017-03-27T07:19:32Z</time>
      </trkpt>
      <trkpt lat="47.27242" lon="-2.35586">
        <ele>3.98</ele>
        <time>2017-03-27T07:19:38Z</time>
      </trkpt>
      <trkpt lat="47.2725" lon="-2.35599">
        <ele>3.02</ele>
        <time>2017-03-27T07:19:45Z</time>
      </trkpt>
      <trkpt lat="47.27257" lon="-2.35611">
        <ele>3.98</ele>
        <time>2017-03-27T07:19:52Z</time>
      </trkpt>
      <trkpt lat="47.27264" lon="-2.35624">
        <ele>3.5</ele>
        <time>2017-03-27T07:19:59Z</time>
      </trkpt>
      <trkpt lat="47.2727" lon="-2.35635">
        <ele>3.5</ele>
        <time>2017-03-27T07:20:05Z</time>
      </trkpt>
      <trkpt lat="47.27275" lon="-2.35648">
        <ele>4.46</ele>
        <time>2017-03-27T07:20:11Z</time>
      </trkpt>
      <trkpt lat="47.27281" lon="-2.35658">
        <ele>4.46</ele>
        <time>2017-03-27T07:20:17Z</time>
      </trkpt>
      <trkpt lat="47.27279" lon="-2.3567">
        <ele>4.46</ele>
        <time>2017-03-27T07:20:23Z</time>
      </trkpt>
      <trkpt lat="47.27282" lon="-2.35682">
        <ele>4.46</ele>
        <time>2017-03-27T07:20:30Z</time>
      </trkpt>
      <trkpt lat="47.27285" lon="-2.35696">
        <ele>5.91</ele>
        <time>2017-03-27T07:20:38Z</time>
      </trkpt>
      <trkpt lat="47.27291" lon="-2.3571">
        <ele>5.91</ele>
        <time>2017-03-27T07:20:45Z</time>
      </trkpt>
      <trkpt lat="47.27297" lon="-2.35722">
        <ele>5.42</ele>
        <time>2017-03-27T07:20:51Z</time>
      </trkpt>
      <trkpt lat="47.27303" lon="-2.35736">
        <ele>6.39</ele>
        <time>2017-03-27T07:20:59Z</time>
      </trkpt>
      <trkpt lat="47.27308" lon="-2.35749">
        <ele>5.42</ele>
        <time>2017-03-27T07:21:06Z</time>
      </trkpt>
      <trkpt lat="47.27313" lon="-2.35761">
        <ele>2.54</ele>
        <time>2017-03-27T07:21:12Z</time>
      </trkpt>
      <trkpt lat="47.2732" lon="-2.35774">
        <ele>2.54</ele>
        <time>2017-03-27T07:21:19Z</time>
      </trkpt>
      <trkpt lat="47.27326" lon="-2.35789">
        <ele>1.58</ele>
        <time>2017-03-27T07:21:26Z</time>
      </trkpt>
      <trkpt lat="47.27332" lon="-2.35801">
        <ele>2.54</ele>
        <time>2017-03-27T07:21:32Z</time>
      </trkpt>
      <trkpt lat="47.27337" lon="-2.35814">
        <ele>2.54</ele>
        <time>2017-03-27T07:21:39Z</time>
      </trkpt>
      <trkpt lat="47.27343" lon="-2.35826">
        <ele>3.98</ele>
        <time>2017-03-27T07:21:46Z</time>
      </trkpt>
      <trkpt lat="47.27349" lon="-2.35837">
        <ele>7.35</ele>
        <time>2017-03-27T07:21:52Z</time>
      </trkpt>
      <trkpt lat="47.27355" lon="-2.35849">
        <ele>4.94</ele>
        <time>2017-03-27T07:21:58Z</time>
      </trkpt>
      <trkpt lat="47.27364" lon="-2.35862">
        <ele>3.02</ele>
        <time>2017-03-27T07:22:05Z</time>
      </trkpt>
      <trkpt lat="47.27369" lon="-2.35873">
        <ele>3.5</ele>
        <time>2017-03-27T07:22:11Z</time>
      </trkpt>
      <trkpt lat="47.27375" lon="-2.35886">
        <ele>3.02</ele>
        <time>2017-03-27T07:22:18Z</time>
      </trkpt>
      <trkpt lat="47.27379" lon="-2.359">
        <ele>2.54</ele>
        <time>2017-03-27T07:22:25Z</time>
      </trkpt>
      <trkpt lat="47.27384" lon="-2.35913">
        <ele>6.87</ele>
        <time>2017-03-27T07:22:31Z</time>
      </trkpt>
      <trkpt lat="47.27388" lon="-2.35923">
        <ele>5.91</ele>
        <time>2017-03-27T07:22:37Z</time>
      </trkpt>
      <trkpt lat="47.27393" lon="-2.35935">
        <ele>3.98</ele>
        <time>2017-03-27T07:22:44Z</time>
      </trkpt>
      <trkpt lat="47.27399" lon="-2.35949">
        <ele>3.02</ele>
        <time>2017-03-27T07:22:51Z</time>
      </trkpt>
      <trkpt lat="47.27404" lon="-2.35962">
        <ele>4.46</ele>
        <time>2017-03-27T07:22:58Z</time>
      </trkpt>
      <trkpt lat="47.27409" lon="-2.35974">
        <ele>7.35</ele>
        <time>2017-03-27T07:23:04Z</time>
      </trkpt>
      <trkpt lat="47.27411" lon="-2.35986">
        <ele>7.35</ele>
        <time>2017-03-27T07:23:11Z</time>
      </trkpt>
      <trkpt lat="47.27415" lon="-2.35999">
        <ele>4.46</ele>
        <time>2017-03-27T07:23:17Z</time>
      </trkpt>
      <trkpt lat="47.2742" lon="-2.36011">
        <ele>3.98</ele>
        <time>2017-03-27T07:23:24Z</time>
      </trkpt>
      <trkpt lat="47.27425" lon="-2.36023">
        <ele>7.35</ele>
        <time>2017-03-27T07:23:30Z</time>
      </trkpt>
      <trkpt lat="47.27428" lon="-2.36035">
        <ele>7.35</ele>
        <time>2017-03-27T07:23:37Z</time>
      </trkpt>
      <trkpt lat="47.27432" lon="-2.36048">
        <ele>4.46</ele>
        <time>2017-03-27T07:23:43Z</time>
      </trkpt>
      <trkpt lat="47.27436" lon="-2.36061">
        <ele>3.98</ele>
        <time>2017-03-27T07:23:50Z</time>
      </trkpt>
      <trkpt lat="47.27443" lon="-2.36076">
        <ele>4.46</ele>
        <time>2017-03-27T07:23:58Z</time>
      </trkpt>
      <trkpt lat="47.27448" lon="-2.36087">
        <ele>5.91</ele>
        <time>2017-03-27T07:24:04Z</time>
      </trkpt>
      <trkpt lat="47.27452" lon="-2.36099">
        <ele>6.87</ele>
        <time>2017-03-27T07:24:10Z</time>
      </trkpt>
      <trkpt lat="47.27455" lon="-2.36112">
        <ele>8.31</ele>
        <time>2017-03-27T07:24:17Z</time>
      </trkpt>
      <trkpt lat="47.27459" lon="-2.36125">
        <ele>7.83</ele>
        <time>2017-03-27T07:24:23Z</time>
      </trkpt>
      <trkpt lat="47.27463" lon="-2.36136">
        <ele>6.87</ele>
        <time>2017-03-27T07:24:29Z</time>
      </trkpt>
      <trkpt lat="47.27469" lon="-2.36148">
        <ele>6.39</ele>
        <time>2017-03-27T07:24:35Z</time>
      </trkpt>
      <trkpt lat="47.27475" lon="-2.36161">
        <ele>8.31</ele>
        <time>2017-03-27T07:24:42Z</time>
      </trkpt>
      <trkpt lat="47.27481" lon="-2.36175">
        <ele>8.79</ele>
        <time>2017-03-27T07:24:49Z</time>
      </trkpt>
      <trkpt lat="47.27487" lon="-2.36189">
        <ele>8.79</ele>
        <time>2017-03-27T07:24:56Z</time>
      </trkpt>
      <trkpt lat="47.27493" lon="-2.36201">
        <ele>7.83</ele>
        <time>2017-03-27T07:25:02Z</time>
      </trkpt>
      <trkpt lat="47.27497" lon="-2.36214">
        <ele>7.83</ele>
        <time>2017-03-27T07:25:08Z</time>
      </trkpt>
      <trkpt lat="47.27502" lon="-2.36225">
        <ele>7.83</ele>
        <time>2017-03-27T07:25:14Z</time>
      </trkpt>
      <trkpt lat="47.27507" lon="-2.36239">
        <ele>5.91</ele>
        <time>2017-03-27T07:25:21Z</time>
      </trkpt>
      <trkpt lat="47.27512" lon="-2.3625">
        <ele>6.39</ele>
        <time>2017-03-27T07:25:27Z</time>
      </trkpt>
      <trkpt lat="47.27517" lon="-2.36262">
        <ele>5.42</ele>
        <time>2017-03-27T07:25:33Z</time>
      </trkpt>
      <trkpt lat="47.27521" lon="-2.36275">
        <ele>4.94</ele>
        <time>2017-03-27T07:25:39Z</time>
      </trkpt>
      <trkpt lat="47.27525" lon="-2.36287">
        <ele>4.94</ele>
        <time>2017-03-27T07:25:45Z</time>
      </trkpt>
      <trkpt lat="47.27531" lon="-2.36299">
        <ele>4.94</ele>
        <time>2017-03-27T07:25:52Z</time>
      </trkpt>
      <trkpt lat="47.27534" lon="-2.36311">
        <ele>5.42</ele>
        <time>2017-03-27T07:25:59Z</time>
      </trkpt>
      <trkpt lat="47.27539" lon="-2.36326">
        <ele>6.87</ele>
        <time>2017-03-27T07:26:06Z</time>
      </trkpt>
      <trkpt lat="47.27544" lon="-2.36338">
        <ele>6.39</ele>
        <time>2017-03-27T07:26:12Z</time>
      </trkpt>
      <trkpt lat="47.27549" lon="-2.36351">
        <ele>5.91</ele>
        <time>2017-03-27T07:26:18Z</time>
      </trkpt>
      <trkpt lat="47.27554" lon="-2.36362">
        <ele>6.39</ele>
        <time>2017-03-27T07:26:24Z</time>
      </trkpt>
      <trkpt lat="47.27561" lon="-2.36374">
        <ele>5.91</ele>
        <time>2017-03-27T07:26:30Z</time>
      </trkpt>
      <trkpt lat="47.27565" lon="-2.36386">
        <ele>4.94</ele>
        <time>2017-03-27T07:26:37Z</time>
      </trkpt>
      <trkpt lat="47.2757" lon="-2.36398">
        <ele>3.98</ele>
        <time>2017-03-27T07:26:43Z</time>
      </trkpt>
      <trkpt lat="47.27572" lon="-2.36411">
        <ele>4.94</ele>
        <time>2017-03-27T07:26:49Z</time>
      </trkpt>
      <trkpt lat="47.27575" lon="-2.36425">
        <ele>4.94</ele>
        <time>2017-03-27T07:26:56Z</time>
      </trkpt>
      <trkpt lat="47.27579" lon="-2.36439">
        <ele>4.46</ele>
        <time>2017-03-27T07:27:03Z</time>
      </trkpt>
      <trkpt lat="47.27585" lon="-2.36452">
        <ele>5.91</ele>
        <time>2017-03-27T07:27:10Z</time>
      </trkpt>
      <trkpt lat="47.2759" lon="-2.36464">
        <ele>8.79</ele>
        <time>2017-03-27T07:27:16Z</time>
      </trkpt>
      <trkpt lat="47.27594" lon="-2.36478">
        <ele>8.79</ele>
        <time>2017-03-27T07:27:23Z</time>
      </trkpt>
      <trkpt lat="47.27601" lon="-2.3649">
        <ele>6.87</ele>
        <time>2017-03-27T07:27:29Z</time>
      </trkpt>
      <trkpt lat="47.27605" lon="-2.36504">
        <ele>5.42</ele>
        <time>2017-03-27T07:27:36Z</time>
      </trkpt>
      <trkpt lat="47.2761" lon="-2.36517">
        <ele>5.42</ele>
        <time>2017-03-27T07:27:43Z</time>
      </trkpt>
      <trkpt lat="47.27616" lon="-2.36528">
        <ele>5.91</ele>
        <time>2017-03-27T07:27:49Z</time>
      </trkpt>
      <trkpt lat="47.27621" lon="-2.3654">
        <ele>8.31</ele>
        <time>2017-03-27T07:27:55Z</time>
      </trkpt>
      <trkpt lat="47.27623" lon="-2.36555">
        <ele>8.79</ele>
        <time>2017-03-27T07:28:02Z</time>
      </trkpt>
      <trkpt lat="47.27627" lon="-2.36567">
        <ele>8.31</ele>
        <time>2017-03-27T07:28:08Z</time>
      </trkpt>
      <trkpt lat="47.27633" lon="-2.3658">
        <ele>8.31</ele>
        <time>2017-03-27T07:28:14Z</time>
      </trkpt>
      <trkpt lat="47.27637" lon="-2.36592">
        <ele>6.39</ele>
        <time>2017-03-27T07:28:20Z</time>
      </trkpt>
      <trkpt lat="47.27642" lon="-2.36605">
        <ele>8.79</ele>
        <time>2017-03-27T07:28:27Z</time>
      </trkpt>
      <trkpt lat="47.27649" lon="-2.3662">
        <ele>8.31</ele>
        <time>2017-03-27T07:28:34Z</time>
      </trkpt>
      <trkpt lat="47.27655" lon="-2.36632">
        <ele>6.39</ele>
        <time>2017-03-27T07:28:40Z</time>
      </trkpt>
      <trkpt lat="47.27659" lon="-2.36647">
        <ele>7.83</ele>
        <time>2017-03-27T07:28:47Z</time>
      </trkpt>
      <trkpt lat="47.27661" lon="-2.3666">
        <ele>6.87</ele>
        <time>2017-03-27T07:28:54Z</time>
      </trkpt>
      <trkpt lat="47.27664" lon="-2.36675">
        <ele>6.87</ele>
        <time>2017-03-27T07:29:01Z</time>
      </trkpt>
      <trkpt lat="47.27667" lon="-2.3669">
        <ele>7.35</ele>
        <time>2017-03-27T07:29:08Z</time>
      </trkpt>
      <trkpt lat="47.27672" lon="-2.36704">
        <ele>7.35</ele>
        <time>2017-03-27T07:29:15Z</time>
      </trkpt>
      <trkpt lat="47.27676" lon="-2.36716">
        <ele>7.35</ele>
        <time>2017-03-27T07:29:21Z</time>
      </trkpt>
      <trkpt lat="47.2768" lon="-2.36728">
        <ele>7.35</ele>
        <time>2017-03-27T07:29:27Z</time>
      </trkpt>
      <trkpt lat="47.27685" lon="-2.36742">
        <ele>4.46</ele>
        <time>2017-03-27T07:29:34Z</time>
      </trkpt>
      <trkpt lat="47.27689" lon="-2.36755">
        <ele>5.91</ele>
        <time>2017-03-27T07:29:40Z</time>
      </trkpt>
      <trkpt lat="47.27694" lon="-2.36768">
        <ele>9.27</ele>
        <time>2017-03-27T07:29:46Z</time>
      </trkpt>
      <trkpt lat="47.27703" lon="-2.36777">
        <ele>6.87</ele>
        <time>2017-03-27T07:29:52Z</time>
      </trkpt>
      <trkpt lat="47.27709" lon="-2.36789">
        <ele>7.35</ele>
        <time>2017-03-27T07:29:59Z</time>
      </trkpt>
      <trkpt lat="47.27712" lon="-2.36804">
        <ele>7.83</ele>
        <time>2017-03-27T07:30:06Z</time>
      </trkpt>
      <trkpt lat="47.2772" lon="-2.36819">
        <ele>5.91</ele>
        <time>2017-03-27T07:30:13Z</time>
      </trkpt>
      <trkpt lat="47.27725" lon="-2.36833">
        <ele>4.46</ele>
        <time>2017-03-27T07:30:20Z</time>
      </trkpt>
      <trkpt lat="47.27733" lon="-2.36846">
        <ele>5.91</ele>
        <time>2017-03-27T07:30:27Z</time>
      </trkpt>
      <trkpt lat="47.27739" lon="-2.36859">
        <ele>7.83</ele>
        <time>2017-03-27T07:30:33Z</time>
      </trkpt>
      <trkpt lat="47.27743" lon="-2.36873">
        <ele>7.83</ele>
        <time>2017-03-27T07:30:39Z</time>
      </trkpt>
      <trkpt lat="47.27746" lon="-2.36887">
        <ele>7.35</ele>
        <time>2017-03-27T07:30:45Z</time>
      </trkpt>
      <trkpt lat="47.2775" lon="-2.36902">
        <ele>7.35</ele>
        <time>2017-03-27T07:30:51Z</time>
      </trkpt>
      <trkpt lat="47.27753" lon="-2.36918">
        <ele>7.83</ele>
        <time>2017-03-27T07:30:58Z</time>
      </trkpt>
      <trkpt lat="47.27756" lon="-2.36933">
        <ele>7.83</ele>
        <time>2017-03-27T07:31:05Z</time>
      </trkpt>
      <trkpt lat="47.27759" lon="-2.36948">
        <ele>9.75</ele>
        <time>2017-03-27T07:31:12Z</time>
      </trkpt>
      <trkpt lat="47.27763" lon="-2.36961">
        <ele>10.23</ele>
        <time>2017-03-27T07:31:18Z</time>
      </trkpt>
      <trkpt lat="47.27768" lon="-2.36974">
        <ele>10.23</ele>
        <time>2017-03-27T07:31:24Z</time>
      </trkpt>
      <trkpt lat="47.27773" lon="-2.36987">
        <ele>12.63</ele>
        <time>2017-03-27T07:31:30Z</time>
      </trkpt>
      <trkpt lat="47.27776" lon="-2.37001">
        <ele>10.23</ele>
        <time>2017-03-27T07:31:36Z</time>
      </trkpt>
      <trkpt lat="47.27777" lon="-2.37016">
        <ele>10.23</ele>
        <time>2017-03-27T07:31:43Z</time>
      </trkpt>
      <trkpt lat="47.27781" lon="-2.37028">
        <ele>10.23</ele>
        <time>2017-03-27T07:31:49Z</time>
      </trkpt>
      <trkpt lat="47.27785" lon="-2.37042">
        <ele>10.71</ele>
        <time>2017-03-27T07:31:55Z</time>
      </trkpt>
      <trkpt lat="47.2779" lon="-2.37056">
        <ele>7.35</ele>
        <time>2017-03-27T07:32:02Z</time>
      </trkpt>
      <trkpt lat="47.27794" lon="-2.3707">
        <ele>6.87</ele>
        <time>2017-03-27T07:32:08Z</time>
      </trkpt>
      <trkpt lat="47.27801" lon="-2.37084">
        <ele>7.35</ele>
        <time>2017-03-27T07:32:14Z</time>
      </trkpt>
      <trkpt lat="47.27804" lon="-2.37097">
        <ele>6.39</ele>
        <time>2017-03-27T07:32:20Z</time>
      </trkpt>
      <trkpt lat="47.27808" lon="-2.37112">
        <ele>6.39</ele>
        <time>2017-03-27T07:32:27Z</time>
      </trkpt>
      <trkpt lat="47.27811" lon="-2.37126">
        <ele>7.83</ele>
        <time>2017-03-27T07:32:33Z</time>
      </trkpt>
      <trkpt lat="47.27814" lon="-2.37139">
        <ele>8.79</ele>
        <time>2017-03-27T07:32:39Z</time>
      </trkpt>
      <trkpt lat="47.27816" lon="-2.37152">
        <ele>7.83</ele>
        <time>2017-03-27T07:32:45Z</time>
      </trkpt>
      <trkpt lat="47.27819" lon="-2.37166">
        <ele>6.39</ele>
        <time>2017-03-27T07:32:51Z</time>
      </trkpt>
      <trkpt lat="47.27821" lon="-2.37181">
        <ele>9.27</ele>
        <time>2017-03-27T07:32:58Z</time>
      </trkpt>
      <trkpt lat="47.27823" lon="-2.37195">
        <ele>7.35</ele>
        <time>2017-03-27T07:33:05Z</time>
      </trkpt>
      <trkpt lat="47.27825" lon="-2.37209">
        <ele>9.27</ele>
        <time>2017-03-27T07:33:12Z</time>
      </trkpt>
      <trkpt lat="47.27828" lon="-2.37223">
        <ele>10.71</ele>
        <time>2017-03-27T07:33:18Z</time>
      </trkpt>
      <trkpt lat="47.27832" lon="-2.37237">
        <ele>12.15</ele>
        <time>2017-03-27T07:33:25Z</time>
      </trkpt>
      <trkpt lat="47.27838" lon="-2.37249">
        <ele>11.19</ele>
        <time>2017-03-27T07:33:31Z</time>
      </trkpt>
      <trkpt lat="47.2784" lon="-2.37265">
        <ele>10.23</ele>
        <time>2017-03-27T07:33:38Z</time>
      </trkpt>
      <trkpt lat="47.27844" lon="-2.3728">
        <ele>8.31</ele>
        <time>2017-03-27T07:33:45Z</time>
      </trkpt>
      <trkpt lat="47.27848" lon="-2.37295">
        <ele>8.31</ele>
        <time>2017-03-27T07:33:51Z</time>
      </trkpt>
      <trkpt lat="47.27852" lon="-2.37307">
        <ele>8.31</ele>
        <time>2017-03-27T07:33:57Z</time>
      </trkpt>
      <trkpt lat="47.27855" lon="-2.3732">
        <ele>9.27</ele>
        <time>2017-03-27T07:34:03Z</time>
      </trkpt>
      <trkpt lat="47.2786" lon="-2.37333">
        <ele>8.79</ele>
        <time>2017-03-27T07:34:10Z</time>
      </trkpt>
      <trkpt lat="47.27864" lon="-2.37348">
        <ele>13.6</ele>
        <time>2017-03-27T07:34:17Z</time>
      </trkpt>
      <trkpt lat="47.27868" lon="-2.37361">
        <ele>13.12</ele>
        <time>2017-03-27T07:34:23Z</time>
      </trkpt>
      <trkpt lat="47.27872" lon="-2.37374">
        <ele>13.6</ele>
        <time>2017-03-27T07:34:29Z</time>
      </trkpt>
      <trkpt lat="47.27875" lon="-2.37388">
        <ele>13.6</ele>
        <time>2017-03-27T07:34:35Z</time>
      </trkpt>
      <trkpt lat="47.2788" lon="-2.37403">
        <ele>13.6</ele>
        <time>2017-03-27T07:34:41Z</time>
      </trkpt>
      <trkpt lat="47.27883" lon="-2.37418">
        <ele>14.08</ele>
        <time>2017-03-27T07:34:47Z</time>
      </trkpt>
      <trkpt lat="47.27885" lon="-2.3743">
        <ele>14.08</ele>
        <time>2017-03-27T07:34:53Z</time>
      </trkpt>
      <trkpt lat="47.27887" lon="-2.37443">
        <ele>15.52</ele>
        <time>2017-03-27T07:34:59Z</time>
      </trkpt>
      <trkpt lat="47.27888" lon="-2.37456">
        <ele>12.63</ele>
        <time>2017-03-27T07:35:05Z</time>
      </trkpt>
      <trkpt lat="47.2789" lon="-2.37469">
        <ele>15.04</ele>
        <time>2017-03-27T07:35:12Z</time>
      </trkpt>
      <trkpt lat="47.27893" lon="-2.37483">
        <ele>15.52</ele>
        <time>2017-03-27T07:35:19Z</time>
      </trkpt>
      <trkpt lat="47.27895" lon="-2.37498">
        <ele>13.6</ele>
        <time>2017-03-27T07:35:26Z</time>
      </trkpt>
      <trkpt lat="47.27898" lon="-2.37511">
        <ele>14.08</ele>
        <time>2017-03-27T07:35:32Z</time>
      </trkpt>
      <trkpt lat="47.27901" lon="-2.37525">
        <ele>11.67</ele>
        <time>2017-03-27T07:35:38Z</time>
      </trkpt>
      <trkpt lat="47.27903" lon="-2.37538">
        <ele>11.19</ele>
        <time>2017-03-27T07:35:44Z</time>
      </trkpt>
      <trkpt lat="47.27907" lon="-2.37552">
        <ele>11.19</ele>
        <time>2017-03-27T07:35:50Z</time>
      </trkpt>
      <trkpt lat="47.2791" lon="-2.37567">
        <ele>10.23</ele>
        <time>2017-03-27T07:35:56Z</time>
      </trkpt>
      <trkpt lat="47.27914" lon="-2.3758">
        <ele>11.19</ele>
        <time>2017-03-27T07:36:02Z</time>
      </trkpt>
      <trkpt lat="47.27917" lon="-2.37593">
        <ele>10.71</ele>
        <time>2017-03-27T07:36:08Z</time>
      </trkpt>
      <trkpt lat="47.2793" lon="-2.37609">
        <ele>11.19</ele>
        <time>2017-03-27T07:36:14Z</time>
      </trkpt>
      <trkpt lat="47.27934" lon="-2.37622">
        <ele>11.19</ele>
        <time>2017-03-27T07:36:20Z</time>
      </trkpt>
      <trkpt lat="47.27937" lon="-2.37635">
        <ele>11.19</ele>
        <time>2017-03-27T07:36:26Z</time>
      </trkpt>
      <trkpt lat="47.27938" lon="-2.3765">
        <ele>13.12</ele>
        <time>2017-03-27T07:36:33Z</time>
      </trkpt>
      <trkpt lat="47.27941" lon="-2.37662">
        <ele>9.75</ele>
        <time>2017-03-27T07:36:39Z</time>
      </trkpt>
      <trkpt lat="47.27943" lon="-2.37675">
        <ele>12.63</ele>
        <time>2017-03-27T07:36:46Z</time>
      </trkpt>
      <trkpt lat="47.27939" lon="-2.37684">
        <ele>16.96</ele>
        <time>2017-03-27T07:37:17Z</time>
      </trkpt>
      <trkpt lat="47.27945" lon="-2.37695">
        <ele>14.08</ele>
        <time>2017-03-27T07:37:24Z</time>
      </trkpt>
      <trkpt lat="47.27948" lon="-2.37709">
        <ele>13.12</ele>
        <time>2017-03-27T07:37:30Z</time>
      </trkpt>
      <trkpt lat="47.27949" lon="-2.37725">
        <ele>14.08</ele>
        <time>2017-03-27T07:37:37Z</time>
      </trkpt>
      <trkpt lat="47.27951" lon="-2.37739">
        <ele>15.52</ele>
        <time>2017-03-27T07:37:43Z</time>
      </trkpt>
      <trkpt lat="47.27953" lon="-2.37753">
        <ele>16</ele>
        <time>2017-03-27T07:37:49Z</time>
      </trkpt>
      <trkpt lat="47.27956" lon="-2.37768">
        <ele>15.52</ele>
        <time>2017-03-27T07:37:56Z</time>
      </trkpt>
      <trkpt lat="47.27959" lon="-2.37784">
        <ele>12.63</ele>
        <time>2017-03-27T07:38:03Z</time>
      </trkpt>
      <trkpt lat="47.27962" lon="-2.378">
        <ele>16</ele>
        <time>2017-03-27T07:38:10Z</time>
      </trkpt>
      <trkpt lat="47.27964" lon="-2.37814">
        <ele>16.48</ele>
        <time>2017-03-27T07:38:16Z</time>
      </trkpt>
      <trkpt lat="47.27967" lon="-2.3783">
        <ele>16.96</ele>
        <time>2017-03-27T07:38:23Z</time>
      </trkpt>
      <trkpt lat="47.2797" lon="-2.37845">
        <ele>16.48</ele>
        <time>2017-03-27T07:38:29Z</time>
      </trkpt>
      <trkpt lat="47.27973" lon="-2.3786">
        <ele>14.56</ele>
        <time>2017-03-27T07:38:36Z</time>
      </trkpt>
      <trkpt lat="47.27975" lon="-2.37874">
        <ele>15.04</ele>
        <time>2017-03-27T07:38:43Z</time>
      </trkpt>
      <trkpt lat="47.27977" lon="-2.37888">
        <ele>17.92</ele>
        <time>2017-03-27T07:38:49Z</time>
      </trkpt>
      <trkpt lat="47.2798" lon="-2.37903">
        <ele>17.92</ele>
        <time>2017-03-27T07:38:55Z</time>
      </trkpt>
      <trkpt lat="47.27983" lon="-2.37917">
        <ele>17.92</ele>
        <time>2017-03-27T07:39:01Z</time>
      </trkpt>
      <trkpt lat="47.27986" lon="-2.3793">
        <ele>17.44</ele>
        <time>2017-03-27T07:39:07Z</time>
      </trkpt>
      <trkpt lat="47.27989" lon="-2.37944">
        <ele>14.56</ele>
        <time>2017-03-27T07:39:14Z</time>
      </trkpt>
      <trkpt lat="47.27993" lon="-2.37958">
        <ele>13.6</ele>
        <time>2017-03-27T07:39:21Z</time>
      </trkpt>
      <trkpt lat="47.27996" lon="-2.37974">
        <ele>14.56</ele>
        <time>2017-03-27T07:39:28Z</time>
      </trkpt>
      <trkpt lat="47.27998" lon="-2.37989">
        <ele>18.4</ele>
        <time>2017-03-27T07:39:35Z</time>
      </trkpt>
      <trkpt lat="47.28001" lon="-2.38004">
        <ele>15.04</ele>
        <time>2017-03-27T07:39:42Z</time>
      </trkpt>
      <trkpt lat="47.28005" lon="-2.38018">
        <ele>14.56</ele>
        <time>2017-03-27T07:39:48Z</time>
      </trkpt>
      <trkpt lat="47.28008" lon="-2.38033">
        <ele>15.04</ele>
        <time>2017-03-27T07:39:54Z</time>
      </trkpt>
      <trkpt lat="47.28011" lon="-2.38048">
        <ele>16.48</ele>
        <time>2017-03-27T07:40:00Z</time>
      </trkpt>
      <trkpt lat="47.28013" lon="-2.38062">
        <ele>15.52</ele>
        <time>2017-03-27T07:40:06Z</time>
      </trkpt>
      <trkpt lat="47.28016" lon="-2.38076">
        <ele>15.04</ele>
        <time>2017-03-27T07:40:12Z</time>
      </trkpt>
      <trkpt lat="47.2802" lon="-2.38091">
        <ele>13.12</ele>
        <time>2017-03-27T07:40:18Z</time>
      </trkpt>
      <trkpt lat="47.28021" lon="-2.38107">
        <ele>12.63</ele>
        <time>2017-03-27T07:40:24Z</time>
      </trkpt>
      <trkpt lat="47.28024" lon="-2.38121">
        <ele>16.96</ele>
        <time>2017-03-27T07:40:31Z</time>
      </trkpt>
      <trkpt lat="47.28027" lon="-2.38135">
        <ele>16.96</ele>
        <time>2017-03-27T07:40:37Z</time>
      </trkpt>
      <trkpt lat="47.28032" lon="-2.38148">
        <ele>17.44</ele>
        <time>2017-03-27T07:40:43Z</time>
      </trkpt>
      <trkpt lat="47.28036" lon="-2.38162">
        <ele>15.04</ele>
        <time>2017-03-27T07:40:50Z</time>
      </trkpt>
      <trkpt lat="47.2804" lon="-2.38176">
        <ele>15.52</ele>
        <time>2017-03-27T07:40:57Z</time>
      </trkpt>
      <trkpt lat="47.28043" lon="-2.3819">
        <ele>16.96</ele>
        <time>2017-03-27T07:41:03Z</time>
      </trkpt>
      <trkpt lat="47.28046" lon="-2.38204">
        <ele>15.52</ele>
        <time>2017-03-27T07:41:09Z</time>
      </trkpt>
      <trkpt lat="47.2805" lon="-2.3822">
        <ele>17.44</ele>
        <time>2017-03-27T07:41:15Z</time>
      </trkpt>
      <trkpt lat="47.28053" lon="-2.38233">
        <ele>17.92</ele>
        <time>2017-03-27T07:41:21Z</time>
      </trkpt>
      <trkpt lat="47.28057" lon="-2.38248">
        <ele>20.81</ele>
        <time>2017-03-27T07:41:28Z</time>
      </trkpt>
      <trkpt lat="47.28059" lon="-2.38262">
        <ele>20.81</ele>
        <time>2017-03-27T07:41:34Z</time>
      </trkpt>
      <trkpt lat="47.28063" lon="-2.38277">
        <ele>20.32</ele>
        <time>2017-03-27T07:41:41Z</time>
      </trkpt>
      <trkpt lat="47.28065" lon="-2.38291">
        <ele>19.84</ele>
        <time>2017-03-27T07:41:48Z</time>
      </trkpt>
      <trkpt lat="47.28067" lon="-2.38308">
        <ele>19.36</ele>
        <time>2017-03-27T07:41:54Z</time>
      </trkpt>
      <trkpt lat="47.28066" lon="-2.38323">
        <ele>19.36</ele>
        <time>2017-03-27T07:42:01Z</time>
      </trkpt>
      <trkpt lat="47.28069" lon="-2.38338">
        <ele>20.32</ele>
        <time>2017-03-27T07:42:08Z</time>
      </trkpt>
      <trkpt lat="47.28072" lon="-2.38354">
        <ele>20.32</ele>
        <time>2017-03-27T07:42:14Z</time>
      </trkpt>
      <trkpt lat="47.28075" lon="-2.38366">
        <ele>19.36</ele>
        <time>2017-03-27T07:42:20Z</time>
      </trkpt>
      <trkpt lat="47.28077" lon="-2.3838">
        <ele>17.44</ele>
        <time>2017-03-27T07:42:26Z</time>
      </trkpt>
      <trkpt lat="47.28079" lon="-2.38393">
        <ele>17.44</ele>
        <time>2017-03-27T07:42:32Z</time>
      </trkpt>
      <trkpt lat="47.28082" lon="-2.38406">
        <ele>17.92</ele>
        <time>2017-03-27T07:42:38Z</time>
      </trkpt>
      <trkpt lat="47.28086" lon="-2.3842">
        <ele>17.44</ele>
        <time>2017-03-27T07:42:44Z</time>
      </trkpt>
      <trkpt lat="47.28089" lon="-2.38433">
        <ele>19.36</ele>
        <time>2017-03-27T07:42:50Z</time>
      </trkpt>
      <trkpt lat="47.28091" lon="-2.38447">
        <ele>18.88</ele>
        <time>2017-03-27T07:42:56Z</time>
      </trkpt>
      <trkpt lat="47.28094" lon="-2.3846">
        <ele>18.88</ele>
        <time>2017-03-27T07:43:02Z</time>
      </trkpt>
      <trkpt lat="47.28096" lon="-2.38473">
        <ele>19.36</ele>
        <time>2017-03-27T07:43:08Z</time>
      </trkpt>
      <trkpt lat="47.28097" lon="-2.38487">
        <ele>20.81</ele>
        <time>2017-03-27T07:43:14Z</time>
      </trkpt>
      <trkpt lat="47.28098" lon="-2.385">
        <ele>17.92</ele>
        <time>2017-03-27T07:43:21Z</time>
      </trkpt>
      <trkpt lat="47.281" lon="-2.38517">
        <ele>20.32</ele>
        <time>2017-03-27T07:43:29Z</time>
      </trkpt>
      <trkpt lat="47.28103" lon="-2.38533">
        <ele>22.73</ele>
        <time>2017-03-27T07:43:37Z</time>
      </trkpt>
      <trkpt lat="47.28105" lon="-2.38548">
        <ele>22.25</ele>
        <time>2017-03-27T07:43:43Z</time>
      </trkpt>
      <trkpt lat="47.28108" lon="-2.38561">
        <ele>19.84</ele>
        <time>2017-03-27T07:43:49Z</time>
      </trkpt>
      <trkpt lat="47.28109" lon="-2.38576">
        <ele>19.36</ele>
        <time>2017-03-27T07:43:55Z</time>
      </trkpt>
      <trkpt lat="47.28111" lon="-2.3859">
        <ele>17.92</ele>
        <time>2017-03-27T07:44:01Z</time>
      </trkpt>
      <trkpt lat="47.28113" lon="-2.38604">
        <ele>17.92</ele>
        <time>2017-03-27T07:44:07Z</time>
      </trkpt>
      <trkpt lat="47.28115" lon="-2.38619">
        <ele>17.44</ele>
        <time>2017-03-27T07:44:13Z</time>
      </trkpt>
      <trkpt lat="47.28115" lon="-2.38632">
        <ele>17.44</ele>
        <time>2017-03-27T07:44:19Z</time>
      </trkpt>
      <trkpt lat="47.28115" lon="-2.38645">
        <ele>16.48</ele>
        <time>2017-03-27T07:44:25Z</time>
      </trkpt>
      <trkpt lat="47.28115" lon="-2.3866">
        <ele>17.92</ele>
        <time>2017-03-27T07:44:31Z</time>
      </trkpt>
      <trkpt lat="47.28115" lon="-2.38675">
        <ele>20.32</ele>
        <time>2017-03-27T07:44:38Z</time>
      </trkpt>
      <trkpt lat="47.28115" lon="-2.38689">
        <ele>20.81</ele>
        <time>2017-03-27T07:44:45Z</time>
      </trkpt>
      <trkpt lat="47.28115" lon="-2.38704">
        <ele>21.29</ele>
        <time>2017-03-27T07:44:52Z</time>
      </trkpt>
      <trkpt lat="47.28115" lon="-2.38718">
        <ele>20.81</ele>
        <time>2017-03-27T07:44:59Z</time>
      </trkpt>
      <trkpt lat="47.28119" lon="-2.38732">
        <ele>19.84</ele>
        <time>2017-03-27T07:45:06Z</time>
      </trkpt>
      <trkpt lat="47.28121" lon="-2.38747">
        <ele>21.29</ele>
        <time>2017-03-27T07:45:12Z</time>
      </trkpt>
      <trkpt lat="47.28125" lon="-2.38762">
        <ele>20.81</ele>
        <time>2017-03-27T07:45:18Z</time>
      </trkpt>
      <trkpt lat="47.28126" lon="-2.38776">
        <ele>20.32</ele>
        <time>2017-03-27T07:45:24Z</time>
      </trkpt>
      <trkpt lat="47.28129" lon="-2.38789">
        <ele>18.88</ele>
        <time>2017-03-27T07:45:30Z</time>
      </trkpt>
      <trkpt lat="47.28131" lon="-2.38804">
        <ele>17.92</ele>
        <time>2017-03-27T07:45:36Z</time>
      </trkpt>
      <trkpt lat="47.28132" lon="-2.38818">
        <ele>15.52</ele>
        <time>2017-03-27T07:45:42Z</time>
      </trkpt>
      <trkpt lat="47.28132" lon="-2.38832">
        <ele>16.48</ele>
        <time>2017-03-27T07:45:48Z</time>
      </trkpt>
      <trkpt lat="47.28132" lon="-2.38848">
        <ele>16.96</ele>
        <time>2017-03-27T07:45:55Z</time>
      </trkpt>
      <trkpt lat="47.28132" lon="-2.38863">
        <ele>15.52</ele>
        <time>2017-03-27T07:46:02Z</time>
      </trkpt>
      <trkpt lat="47.28135" lon="-2.38878">
        <ele>14.56</ele>
        <time>2017-03-27T07:46:08Z</time>
      </trkpt>
      <trkpt lat="47.28135" lon="-2.38893">
        <ele>15.52</ele>
        <time>2017-03-27T07:46:14Z</time>
      </trkpt>
      <trkpt lat="47.28137" lon="-2.38906">
        <ele>16</ele>
        <time>2017-03-27T07:46:20Z</time>
      </trkpt>
      <trkpt lat="47.2814" lon="-2.38919">
        <ele>15.52</ele>
        <time>2017-03-27T07:46:27Z</time>
      </trkpt>
      <trkpt lat="47.28144" lon="-2.38932">
        <ele>17.44</ele>
        <time>2017-03-27T07:46:33Z</time>
      </trkpt>
      <trkpt lat="47.28148" lon="-2.38945">
        <ele>19.84</ele>
        <time>2017-03-27T07:46:39Z</time>
      </trkpt>
      <trkpt lat="47.28152" lon="-2.38959">
        <ele>20.81</ele>
        <time>2017-03-27T07:46:46Z</time>
      </trkpt>
      <trkpt lat="47.28153" lon="-2.38972">
        <ele>21.29</ele>
        <time>2017-03-27T07:46:53Z</time>
      </trkpt>
      <trkpt lat="47.28155" lon="-2.38986">
        <ele>18.4</ele>
        <time>2017-03-27T07:46:59Z</time>
      </trkpt>
      <trkpt lat="47.28156" lon="-2.39002">
        <ele>17.44</ele>
        <time>2017-03-27T07:47:06Z</time>
      </trkpt>
      <trkpt lat="47.2816" lon="-2.39017">
        <ele>17.44</ele>
        <time>2017-03-27T07:47:13Z</time>
      </trkpt>
      <trkpt lat="47.28163" lon="-2.3903">
        <ele>19.84</ele>
        <time>2017-03-27T07:47:19Z</time>
      </trkpt>
      <trkpt lat="47.28164" lon="-2.39044">
        <ele>16.48</ele>
        <time>2017-03-27T07:47:40Z</time>
      </trkpt>
      <trkpt lat="47.28167" lon="-2.39056">
        <ele>17.92</ele>
        <time>2017-03-27T07:47:46Z</time>
      </trkpt>
      <trkpt lat="47.28167" lon="-2.39071">
        <ele>19.84</ele>
        <time>2017-03-27T07:47:52Z</time>
      </trkpt>
      <trkpt lat="47.28168" lon="-2.39085">
        <ele>20.32</ele>
        <time>2017-03-27T07:47:58Z</time>
      </trkpt>
      <trkpt lat="47.28168" lon="-2.391">
        <ele>18.88</ele>
        <time>2017-03-27T07:48:05Z</time>
      </trkpt>
      <trkpt lat="47.28166" lon="-2.39114">
        <ele>17.92</ele>
        <time>2017-03-27T07:48:12Z</time>
      </trkpt>
      <trkpt lat="47.28167" lon="-2.39129">
        <ele>16.48</ele>
        <time>2017-03-27T07:48:19Z</time>
      </trkpt>
      <trkpt lat="47.28168" lon="-2.39144">
        <ele>16.48</ele>
        <time>2017-03-27T07:48:26Z</time>
      </trkpt>
      <trkpt lat="47.28169" lon="-2.3916">
        <ele>18.4</ele>
        <time>2017-03-27T07:48:33Z</time>
      </trkpt>
      <trkpt lat="47.2817" lon="-2.39176">
        <ele>20.81</ele>
        <time>2017-03-27T07:48:40Z</time>
      </trkpt>
      <trkpt lat="47.2817" lon="-2.39189">
        <ele>17.44</ele>
        <time>2017-03-27T07:48:47Z</time>
      </trkpt>
      <trkpt lat="47.2817" lon="-2.39202">
        <ele>16</ele>
        <time>2017-03-27T07:48:53Z</time>
      </trkpt>
      <trkpt lat="47.28171" lon="-2.39216">
        <ele>16.96</ele>
        <time>2017-03-27T07:48:59Z</time>
      </trkpt>
      <trkpt lat="47.28173" lon="-2.3923">
        <ele>18.4</ele>
        <time>2017-03-27T07:49:05Z</time>
      </trkpt>
      <trkpt lat="47.28174" lon="-2.39246">
        <ele>16.96</ele>
        <time>2017-03-27T07:49:12Z</time>
      </trkpt>
      <trkpt lat="47.28174" lon="-2.39262">
        <ele>19.84</ele>
        <time>2017-03-27T07:49:19Z</time>
      </trkpt>
      <trkpt lat="47.28176" lon="-2.39276">
        <ele>20.81</ele>
        <time>2017-03-27T07:49:26Z</time>
      </trkpt>
      <trkpt lat="47.28178" lon="-2.39292">
        <ele>17.44</ele>
        <time>2017-03-27T07:49:33Z</time>
      </trkpt>
      <trkpt lat="47.28179" lon="-2.39308">
        <ele>16.48</ele>
        <time>2017-03-27T07:49:40Z</time>
      </trkpt>
      <trkpt lat="47.2818" lon="-2.39322">
        <ele>17.44</ele>
        <time>2017-03-27T07:49:46Z</time>
      </trkpt>
      <trkpt lat="47.28179" lon="-2.39338">
        <ele>17.92</ele>
        <time>2017-03-27T07:49:53Z</time>
      </trkpt>
      <trkpt lat="47.28179" lon="-2.39351">
        <ele>20.32</ele>
        <time>2017-03-27T07:49:59Z</time>
      </trkpt>
      <trkpt lat="47.2818" lon="-2.39365">
        <ele>20.81</ele>
        <time>2017-03-27T07:50:05Z</time>
      </trkpt>
      <trkpt lat="47.2818" lon="-2.3938">
        <ele>21.29</ele>
        <time>2017-03-27T07:50:12Z</time>
      </trkpt>
      <trkpt lat="47.28178" lon="-2.39393">
        <ele>17.92</ele>
        <time>2017-03-27T07:50:18Z</time>
      </trkpt>
      <trkpt lat="47.28176" lon="-2.39408">
        <ele>18.4</ele>
        <time>2017-03-27T07:50:25Z</time>
      </trkpt>
      <trkpt lat="47.28175" lon="-2.39422">
        <ele>18.88</ele>
        <time>2017-03-27T07:50:32Z</time>
      </trkpt>
      <trkpt lat="47.28176" lon="-2.39437">
        <ele>18.88</ele>
        <time>2017-03-27T07:50:39Z</time>
      </trkpt>
      <trkpt lat="47.2818" lon="-2.39452">
        <ele>16</ele>
        <time>2017-03-27T07:50:47Z</time>
      </trkpt>
      <trkpt lat="47.28192" lon="-2.39457">
        <ele>16.96</ele>
        <time>2017-03-27T07:50:56Z</time>
      </trkpt>
      <trkpt lat="47.28198" lon="-2.39469">
        <ele>16.96</ele>
        <time>2017-03-27T07:51:07Z</time>
      </trkpt>
      <trkpt lat="47.28208" lon="-2.3947">
        <ele>17.92</ele>
        <time>2017-03-27T07:51:14Z</time>
      </trkpt>
      <trkpt lat="47.28218" lon="-2.39462">
        <ele>17.92</ele>
        <time>2017-03-27T07:51:22Z</time>
      </trkpt>
      <trkpt lat="47.28228" lon="-2.3946">
        <ele>14.56</ele>
        <time>2017-03-27T07:51:29Z</time>
      </trkpt>
      <trkpt lat="47.2824" lon="-2.39461">
        <ele>16.96</ele>
        <time>2017-03-27T07:51:37Z</time>
      </trkpt>
      <trkpt lat="47.28252" lon="-2.39458">
        <ele>16.96</ele>
        <time>2017-03-27T07:51:44Z</time>
      </trkpt>
      <trkpt lat="47.2826" lon="-2.39452">
        <ele>15.04</ele>
        <time>2017-03-27T07:51:51Z</time>
      </trkpt>
      <trkpt lat="47.28269" lon="-2.39447">
        <ele>16.48</ele>
        <time>2017-03-27T07:51:57Z</time>
      </trkpt>
      <trkpt lat="47.28274" lon="-2.39446">
        <ele>15.04</ele>
        <time>2017-03-27T07:52:10Z</time>
      </trkpt>
      <trkpt lat="47.28273" lon="-2.39433">
        <ele>13.12</ele>
        <time>2017-03-27T07:52:19Z</time>
      </trkpt>
      <trkpt lat="47.28273" lon="-2.39418">
        <ele>15.52</ele>
        <time>2017-03-27T07:52:26Z</time>
      </trkpt>
      <trkpt lat="47.28271" lon="-2.39402">
        <ele>14.08</ele>
        <time>2017-03-27T07:52:33Z</time>
      </trkpt>
      <trkpt lat="47.2827" lon="-2.39385">
        <ele>11.19</ele>
        <time>2017-03-27T07:52:40Z</time>
      </trkpt>
      <trkpt lat="47.2827" lon="-2.39371">
        <ele>11.19</ele>
        <time>2017-03-27T07:52:46Z</time>
      </trkpt>
      <trkpt lat="47.2827" lon="-2.39356">
        <ele>11.19</ele>
        <time>2017-03-27T07:52:52Z</time>
      </trkpt>
      <trkpt lat="47.28269" lon="-2.39341">
        <ele>11.67</ele>
        <time>2017-03-27T07:53:00Z</time>
      </trkpt>
      <trkpt lat="47.28268" lon="-2.39325">
        <ele>11.19</ele>
        <time>2017-03-27T07:53:09Z</time>
      </trkpt>
      <trkpt lat="47.28268" lon="-2.39308">
        <ele>14.08</ele>
        <time>2017-03-27T07:53:17Z</time>
      </trkpt>
      <trkpt lat="47.28266" lon="-2.39292">
        <ele>15.04</ele>
        <time>2017-03-27T07:53:25Z</time>
      </trkpt>
      <trkpt lat="47.28263" lon="-2.39272">
        <ele>15.52</ele>
        <time>2017-03-27T07:53:33Z</time>
      </trkpt>
      <trkpt lat="47.28264" lon="-2.39254">
        <ele>13.6</ele>
        <time>2017-03-27T07:53:40Z</time>
      </trkpt>
      <trkpt lat="47.28261" lon="-2.39241">
        <ele>15.04</ele>
        <time>2017-03-27T07:53:48Z</time>
      </trkpt>
      <trkpt lat="47.2827" lon="-2.3923">
        <ele>13.6</ele>
        <time>2017-03-27T07:53:56Z</time>
      </trkpt>
      <trkpt lat="47.28277" lon="-2.3922">
        <ele>16</ele>
        <time>2017-03-27T07:54:05Z</time>
      </trkpt>
      <trkpt lat="47.28288" lon="-2.39213">
        <ele>15.52</ele>
        <time>2017-03-27T07:54:15Z</time>
      </trkpt>
      <trkpt lat="47.28298" lon="-2.39209">
        <ele>14.08</ele>
        <time>2017-03-27T07:54:22Z</time>
      </trkpt>
      <trkpt lat="47.2831" lon="-2.39202">
        <ele>14.08</ele>
        <time>2017-03-27T07:54:29Z</time>
      </trkpt>
      <trkpt lat="47.28323" lon="-2.39201">
        <ele>16.48</ele>
        <time>2017-03-27T07:54:38Z</time>
      </trkpt>
      <trkpt lat="47.28333" lon="-2.39199">
        <ele>15.04</ele>
        <time>2017-03-27T07:54:46Z</time>
      </trkpt>
      <trkpt lat="47.28345" lon="-2.39203">
        <ele>16</ele>
        <time>2017-03-27T07:54:55Z</time>
      </trkpt>
      <trkpt lat="47.28357" lon="-2.39201">
        <ele>16.96</ele>
        <time>2017-03-27T07:55:07Z</time>
      </trkpt>
      <trkpt lat="47.28366" lon="-2.39194">
        <ele>13.12</ele>
        <time>2017-03-27T07:55:15Z</time>
      </trkpt>
      <trkpt lat="47.28377" lon="-2.39192">
        <ele>15.52</ele>
        <time>2017-03-27T07:55:23Z</time>
      </trkpt>
      <trkpt lat="47.28389" lon="-2.39189">
        <ele>16</ele>
        <time>2017-03-27T07:55:32Z</time>
      </trkpt>
      <trkpt lat="47.28402" lon="-2.3919">
        <ele>15.04</ele>
        <time>2017-03-27T07:55:39Z</time>
      </trkpt>
      <trkpt lat="47.28413" lon="-2.39195">
        <ele>16.48</ele>
        <time>2017-03-27T07:55:46Z</time>
      </trkpt>
      <trkpt lat="47.28425" lon="-2.39193">
        <ele>14.56</ele>
        <time>2017-03-27T07:55:53Z</time>
      </trkpt>
      <trkpt lat="47.28435" lon="-2.3919">
        <ele>12.15</ele>
        <time>2017-03-27T07:56:01Z</time>
      </trkpt>
      <trkpt lat="47.28446" lon="-2.39191">
        <ele>13.12</ele>
        <time>2017-03-27T07:56:10Z</time>
      </trkpt>
      <trkpt lat="47.28456" lon="-2.39184">
        <ele>13.12</ele>
        <time>2017-03-27T07:56:19Z</time>
      </trkpt>
      <trkpt lat="47.28466" lon="-2.39183">
        <ele>14.08</ele>
        <time>2017-03-27T07:56:33Z</time>
      </trkpt>
      <trkpt lat="47.28478" lon="-2.39181">
        <ele>11.67</ele>
        <time>2017-03-27T07:56:42Z</time>
      </trkpt>
      <trkpt lat="47.28489" lon="-2.39176">
        <ele>13.12</ele>
        <time>2017-03-27T07:56:51Z</time>
      </trkpt>
      <trkpt lat="47.28501" lon="-2.3917">
        <ele>13.6</ele>
        <time>2017-03-27T07:57:01Z</time>
      </trkpt>
      <trkpt lat="47.28515" lon="-2.39167">
        <ele>13.6</ele>
        <time>2017-03-27T07:57:09Z</time>
      </trkpt>
      <trkpt lat="47.28527" lon="-2.39165">
        <ele>13.12</ele>
        <time>2017-03-27T07:57:20Z</time>
      </trkpt>
      <trkpt lat="47.28542" lon="-2.39168">
        <ele>14.56</ele>
        <time>2017-03-27T07:57:29Z</time>
      </trkpt>
      <trkpt lat="47.28559" lon="-2.3917">
        <ele>14.56</ele>
        <time>2017-03-27T07:57:39Z</time>
      </trkpt>
      <trkpt lat="47.28572" lon="-2.39169">
        <ele>15.04</ele>
        <time>2017-03-27T07:57:48Z</time>
      </trkpt>
      <trkpt lat="47.28581" lon="-2.39162">
        <ele>14.56</ele>
        <time>2017-03-27T07:57:57Z</time>
      </trkpt>
      <trkpt lat="47.28606" lon="-2.3916">
        <ele>14.56</ele>
        <time>2017-03-27T07:58:09Z</time>
      </trkpt>
      <trkpt lat="47.2862" lon="-2.39155">
        <ele>11.19</ele>
        <time>2017-03-27T07:58:22Z</time>
      </trkpt>
      <trkpt lat="47.28636" lon="-2.39155">
        <ele>13.6</ele>
        <time>2017-03-27T07:58:33Z</time>
      </trkpt>
      <trkpt lat="47.28653" lon="-2.39153">
        <ele>12.63</ele>
        <time>2017-03-27T07:58:46Z</time>
      </trkpt>
      <trkpt lat="47.28663" lon="-2.39152">
        <ele>15.04</ele>
        <time>2017-03-27T07:58:54Z</time>
      </trkpt>
      <trkpt lat="47.28666" lon="-2.3914">
        <ele>13.12</ele>
        <time>2017-03-27T07:59:11Z</time>
      </trkpt>
      <trkpt lat="47.28662" lon="-2.39145">
        <ele>13.12</ele>
        <time>2017-03-27T08:00:08Z</time>
      </trkpt>
      <trkpt lat="47.28665" lon="-2.39151">
        <ele>12.15</ele>
        <time>2017-03-27T08:01:20Z</time>
      </trkpt>
      <trkpt lat="47.2866" lon="-2.39154">
        <ele>13.12</ele>
        <time>2017-03-27T08:02:32Z</time>
      </trkpt>
      <trkpt lat="47.28658" lon="-2.39156">
        <ele>11.67</ele>
        <time>2017-03-27T08:03:32Z</time>
      </trkpt>
      <trkpt lat="47.2866" lon="-2.39155">
        <ele>11.19</ele>
        <time>2017-03-27T08:05:53Z</time>
      </trkpt>
      <trkpt lat="47.28667" lon="-2.39137">
        <ele>11.67</ele>
        <time>2017-03-27T08:06:51Z</time>
      </trkpt>
      <trkpt lat="47.28675" lon="-2.39123">
        <ele>10.23</ele>
        <time>2017-03-27T08:07:06Z</time>
      </trkpt>
      <trkpt lat="47.28675" lon="-2.39122">
        <ele>11.67</ele>
        <time>2017-03-27T08:07:59Z</time>
      </trkpt>
      <trkpt lat="47.28679" lon="-2.39117">
        <ele>10.23</ele>
        <time>2017-03-27T08:09:02Z</time>
      </trkpt>
      <trkpt lat="47.28684" lon="-2.39109">
        <ele>10.71</ele>
        <time>2017-03-27T08:09:18Z</time>
      </trkpt>
      <trkpt lat="47.28685" lon="-2.3909">
        <ele>10.71</ele>
        <time>2017-03-27T08:09:28Z</time>
      </trkpt>
      <trkpt lat="47.28684" lon="-2.39075">
        <ele>10.71</ele>
        <time>2017-03-27T08:09:40Z</time>
      </trkpt>
      <trkpt lat="47.28677" lon="-2.3906">
        <ele>10.71</ele>
        <time>2017-03-27T08:09:51Z</time>
      </trkpt>
      <trkpt lat="47.28671" lon="-2.3905">
        <ele>11.19</ele>
        <time>2017-03-27T08:09:59Z</time>
      </trkpt>
      <trkpt lat="47.28662" lon="-2.39041">
        <ele>11.19</ele>
        <time>2017-03-27T08:10:11Z</time>
      </trkpt>
      <trkpt lat="47.28653" lon="-2.3903">
        <ele>9.75</ele>
        <time>2017-03-27T08:10:20Z</time>
      </trkpt>
      <trkpt lat="47.28657" lon="-2.39011">
        <ele>9.75</ele>
        <time>2017-03-27T08:10:29Z</time>
      </trkpt>
      <trkpt lat="47.28652" lon="-2.38993">
        <ele>9.27</ele>
        <time>2017-03-27T08:10:42Z</time>
      </trkpt>
      <trkpt lat="47.28644" lon="-2.38978">
        <ele>10.71</ele>
        <time>2017-03-27T08:10:50Z</time>
      </trkpt>
      <trkpt lat="47.28639" lon="-2.38958">
        <ele>10.23</ele>
        <time>2017-03-27T08:11:01Z</time>
      </trkpt>
      <trkpt lat="47.28637" lon="-2.38963">
        <ele>11.19</ele>
        <time>2017-03-27T08:11:22Z</time>
      </trkpt>
      <trkpt lat="47.28638" lon="-2.38973">
        <ele>10.23</ele>
        <time>2017-03-27T08:11:44Z</time>
      </trkpt>
      <trkpt lat="47.28652" lon="-2.3899">
        <ele>10.71</ele>
        <time>2017-03-27T08:11:53Z</time>
      </trkpt>
      <trkpt lat="47.2866" lon="-2.39006">
        <ele>10.71</ele>
        <time>2017-03-27T08:12:00Z</time>
      </trkpt>
      <trkpt lat="47.28668" lon="-2.39021">
        <ele>11.67</ele>
        <time>2017-03-27T08:12:11Z</time>
      </trkpt>
      <trkpt lat="47.28678" lon="-2.39036">
        <ele>9.75</ele>
        <time>2017-03-27T08:12:20Z</time>
      </trkpt>
      <trkpt lat="47.28684" lon="-2.39048">
        <ele>8.79</ele>
        <time>2017-03-27T08:12:29Z</time>
      </trkpt>
      <trkpt lat="47.28698" lon="-2.3906">
        <ele>10.23</ele>
        <time>2017-03-27T08:12:41Z</time>
      </trkpt>
      <trkpt lat="47.28712" lon="-2.39074">
        <ele>10.71</ele>
        <time>2017-03-27T08:12:57Z</time>
      </trkpt>
      <trkpt lat="47.2872" lon="-2.39088">
        <ele>10.71</ele>
        <time>2017-03-27T08:13:09Z</time>
      </trkpt>
      <trkpt lat="47.28731" lon="-2.39095">
        <ele>11.67</ele>
        <time>2017-03-27T08:13:25Z</time>
      </trkpt>
      <trkpt lat="47.28739" lon="-2.39106">
        <ele>9.75</ele>
        <time>2017-03-27T08:13:33Z</time>
      </trkpt>
      <trkpt lat="47.2875" lon="-2.3911">
        <ele>7.83</ele>
        <time>2017-03-27T08:13:41Z</time>
      </trkpt>
      <trkpt lat="47.28762" lon="-2.39116">
        <ele>9.75</ele>
        <time>2017-03-27T08:13:51Z</time>
      </trkpt>
      <trkpt lat="47.28774" lon="-2.39122">
        <ele>12.15</ele>
        <time>2017-03-27T08:13:59Z</time>
      </trkpt>
      <trkpt lat="47.28783" lon="-2.39126">
        <ele>9.75</ele>
        <time>2017-03-27T08:14:05Z</time>
      </trkpt>
      <trkpt lat="47.28793" lon="-2.3913">
        <ele>11.19</ele>
        <time>2017-03-27T08:14:12Z</time>
      </trkpt>
      <trkpt lat="47.28802" lon="-2.39136">
        <ele>9.75</ele>
        <time>2017-03-27T08:14:20Z</time>
      </trkpt>
      <trkpt lat="47.28809" lon="-2.39141">
        <ele>9.27</ele>
        <time>2017-03-27T08:14:29Z</time>
      </trkpt>
      <trkpt lat="47.2882" lon="-2.3915">
        <ele>11.19</ele>
        <time>2017-03-27T08:14:40Z</time>
      </trkpt>
      <trkpt lat="47.28831" lon="-2.39155">
        <ele>9.27</ele>
        <time>2017-03-27T08:14:49Z</time>
      </trkpt>
      <trkpt lat="47.28832" lon="-2.39141">
        <ele>8.79</ele>
        <time>2017-03-27T08:14:58Z</time>
      </trkpt>
      <trkpt lat="47.28834" lon="-2.39127">
        <ele>8.31</ele>
        <time>2017-03-27T08:15:06Z</time>
      </trkpt>
      <trkpt lat="47.2884" lon="-2.39119">
        <ele>8.31</ele>
        <time>2017-03-27T08:15:15Z</time>
      </trkpt>
      <trkpt lat="47.28849" lon="-2.39122">
        <ele>8.79</ele>
        <time>2017-03-27T08:15:26Z</time>
      </trkpt>
      <trkpt lat="47.28856" lon="-2.39116">
        <ele>7.35</ele>
        <time>2017-03-27T08:15:55Z</time>
      </trkpt>
      <trkpt lat="47.28855" lon="-2.39111">
        <ele>10.23</ele>
        <time>2017-03-27T08:16:31Z</time>
      </trkpt>
    </trkseg>
  </trk>
</gpx>